<?xml version="1.0" encoding="UTF-8"?>
<gpx schemaLocation="http://www.topografix.com/GPX/1/1 http://www.topografix.com/GPX/1/1/gpx.xsd" version="1.1" creator="Enregistré par Geo Tracker pour Android de Ilya Bogdanovich" xmlns="http://www.topografix.com/GPX/1/1" xmlns:xsi="http://www.w3.org/2001/XMLSchema-instance" xsi:schemaLocation="http://www.topografix.com/GPX/1/1 http://www.topografix.com/GPX/1/1/gpx.xsd http://www.garmin.com/xmlschemas/GpxExtensions/v3 http://www.garmin.com/xmlschemas/GpxExtensionsv3.xsd http://www.garmin.com/xmlschemas/TrackPointExtension/v1 http://www.garmin.com/xmlschemas/TrackPointExtensionv1.xsd http://www.garmin.com/xmlschemas/PowerExtension/v1 http://www.garmin.com/xmlschemas/PowerExtensionv1.xsd http://www.topografix.com/GPX/gpx_style/0/2 http://www.topografix.com/GPX/gpx_style/0/2/gpx_style.xsd" xmlns:gpxtpx="http://www.garmin.com/xmlschemas/TrackPointExtension/v1" xmlns:gpxx="http://www.garmin.com/xmlschemas/GpxExtensions/v3" xmlns:gpxpx="http://www.garmin.com/xmlschemas/PowerExtension/v1" xmlns:gpx_style="http://www.topografix.com/GPX/gpx_style/0/2">
  <metadata>
    <name>Lamotte 9,3 km 03/01/26</name>
    <author>
      <name>gpx.studio</name>
      <link href="https://gpx.studio"/>
    </author>
    <link href="https://play.google.com/store/apps/details?id=com.ilyabogdanovich.geotracker"/>
    <time>2026-01-03T13:07:05.000Z</time>
  </metadata>
  <trk>
    <name>Lamotte 9,3 km 03/01/26</name>
    <src>Enregistré par Geo Tracker pour Android de Ilya Bogdanovich</src>
    <link href="https://play.google.com/store/apps/details?id=com.ilyabogdanovich.geotracker"/>
    <trkseg>
      <trkpt lat="47.59566427" lon="2.01988476">
        <ele>162.09</ele>
        <time>2026-01-03T13:07:54.000Z</time>
      </trkpt>
      <trkpt lat="47.5957086" lon="2.0198206">
        <ele>160.62</ele>
        <time>2026-01-03T13:10:00.000Z</time>
      </trkpt>
      <trkpt lat="47.59579863" lon="2.01978374">
        <ele>161.63</ele>
        <time>2026-01-03T13:10:07.000Z</time>
      </trkpt>
      <trkpt lat="47.59588193" lon="2.01971816">
        <ele>161.07</ele>
        <time>2026-01-03T13:10:13.000Z</time>
      </trkpt>
      <trkpt lat="47.59598006" lon="2.01968691">
        <ele>158.95</ele>
        <time>2026-01-03T13:10:21.000Z</time>
      </trkpt>
      <trkpt lat="47.59607993" lon="2.01966178">
        <ele>156.99</ele>
        <time>2026-01-03T13:10:29.000Z</time>
      </trkpt>
      <trkpt lat="47.59617152" lon="2.01961675">
        <ele>153.86</ele>
        <time>2026-01-03T13:10:37.000Z</time>
      </trkpt>
      <trkpt lat="47.59626837" lon="2.01958336">
        <ele>154.39</ele>
        <time>2026-01-03T13:10:44.000Z</time>
      </trkpt>
      <trkpt lat="47.59636112" lon="2.01956409">
        <ele>154.15</ele>
        <time>2026-01-03T13:10:51.000Z</time>
      </trkpt>
      <trkpt lat="47.59645215" lon="2.0195759">
        <ele>153.36</ele>
        <time>2026-01-03T13:10:58.000Z</time>
      </trkpt>
      <trkpt lat="47.59653808" lon="2.01963554">
        <ele>152.67</ele>
        <time>2026-01-03T13:11:11.000Z</time>
      </trkpt>
      <trkpt lat="47.59656487" lon="2.0195012">
        <ele>152.37</ele>
        <time>2026-01-03T13:11:19.000Z</time>
      </trkpt>
      <trkpt lat="47.59651787" lon="2.0193708">
        <ele>153.21</ele>
        <time>2026-01-03T13:11:27.000Z</time>
      </trkpt>
      <trkpt lat="47.59653951" lon="2.01923209">
        <ele>150.59</ele>
        <time>2026-01-03T13:11:36.000Z</time>
      </trkpt>
      <trkpt lat="47.59658453" lon="2.01911411">
        <ele>148.8</ele>
        <time>2026-01-03T13:12:01.000Z</time>
      </trkpt>
      <trkpt lat="47.59666253" lon="2.01902863">
        <ele>149.24</ele>
        <time>2026-01-03T13:12:11.000Z</time>
      </trkpt>
      <trkpt lat="47.59670693" lon="2.01889658">
        <ele>148.66</ele>
        <time>2026-01-03T13:12:20.000Z</time>
      </trkpt>
      <trkpt lat="47.59676288" lon="2.01877688">
        <ele>149.61</ele>
        <time>2026-01-03T13:12:28.000Z</time>
      </trkpt>
      <trkpt lat="47.59681968" lon="2.01866151">
        <ele>149.82</ele>
        <time>2026-01-03T13:12:45.000Z</time>
      </trkpt>
      <trkpt lat="47.59686829" lon="2.01854322">
        <ele>149.87</ele>
        <time>2026-01-03T13:12:53.000Z</time>
      </trkpt>
      <trkpt lat="47.59691591" lon="2.01841356">
        <ele>151.67</ele>
        <time>2026-01-03T13:13:02.000Z</time>
      </trkpt>
      <trkpt lat="47.59695139" lon="2.01829001">
        <ele>150.84</ele>
        <time>2026-01-03T13:13:10.000Z</time>
      </trkpt>
      <trkpt lat="47.59700907" lon="2.01817402">
        <ele>151.13</ele>
        <time>2026-01-03T13:13:18.000Z</time>
      </trkpt>
      <trkpt lat="47.59706887" lon="2.01805619">
        <ele>153.53</ele>
        <time>2026-01-03T13:13:26.000Z</time>
      </trkpt>
      <trkpt lat="47.59712362" lon="2.01794488">
        <ele>152.22</ele>
        <time>2026-01-03T13:13:34.000Z</time>
      </trkpt>
      <trkpt lat="47.59716576" lon="2.01781771">
        <ele>150.9</ele>
        <time>2026-01-03T13:13:42.000Z</time>
      </trkpt>
      <trkpt lat="47.5972077" lon="2.0176957">
        <ele>149.92</ele>
        <time>2026-01-03T13:13:51.000Z</time>
      </trkpt>
      <trkpt lat="47.59727122" lon="2.01759253">
        <ele>150.34</ele>
        <time>2026-01-03T13:13:58.000Z</time>
      </trkpt>
      <trkpt lat="47.59730895" lon="2.01745299">
        <ele>151.73</ele>
        <time>2026-01-03T13:14:04.000Z</time>
      </trkpt>
      <trkpt lat="47.59736722" lon="2.01733359">
        <ele>150.94</ele>
        <time>2026-01-03T13:14:11.000Z</time>
      </trkpt>
      <trkpt lat="47.59742192" lon="2.01722163">
        <ele>152.77</ele>
        <time>2026-01-03T13:14:18.000Z</time>
      </trkpt>
      <trkpt lat="47.59745272" lon="2.0170865">
        <ele>151.92</ele>
        <time>2026-01-03T13:14:29.000Z</time>
      </trkpt>
      <trkpt lat="47.59745882" lon="2.01695345">
        <ele>150.12</ele>
        <time>2026-01-03T13:14:52.000Z</time>
      </trkpt>
      <trkpt lat="47.59745335" lon="2.01681929">
        <ele>150.17</ele>
        <time>2026-01-03T13:15:06.000Z</time>
      </trkpt>
      <trkpt lat="47.5974373" lon="2.0166847">
        <ele>150.08</ele>
        <time>2026-01-03T13:15:16.000Z</time>
      </trkpt>
      <trkpt lat="47.59741167" lon="2.01653898">
        <ele>149.17</ele>
        <time>2026-01-03T13:15:24.000Z</time>
      </trkpt>
      <trkpt lat="47.59740075" lon="2.01639849">
        <ele>148.32</ele>
        <time>2026-01-03T13:15:32.000Z</time>
      </trkpt>
      <trkpt lat="47.59739204" lon="2.01626137">
        <ele>147.06</ele>
        <time>2026-01-03T13:15:41.000Z</time>
      </trkpt>
      <trkpt lat="47.59738339" lon="2.01611996">
        <ele>147.11</ele>
        <time>2026-01-03T13:15:50.000Z</time>
      </trkpt>
      <trkpt lat="47.59737388" lon="2.01597715">
        <ele>146.37</ele>
        <time>2026-01-03T13:15:59.000Z</time>
      </trkpt>
      <trkpt lat="47.59736141" lon="2.01584474">
        <ele>146.38</ele>
        <time>2026-01-03T13:16:06.000Z</time>
      </trkpt>
      <trkpt lat="47.59735022" lon="2.01570265">
        <ele>146.53</ele>
        <time>2026-01-03T13:16:13.000Z</time>
      </trkpt>
      <trkpt lat="47.59733894" lon="2.01556616">
        <ele>146.02</ele>
        <time>2026-01-03T13:16:20.000Z</time>
      </trkpt>
      <trkpt lat="47.59728695" lon="2.01545341">
        <ele>145.55</ele>
        <time>2026-01-03T13:16:27.000Z</time>
      </trkpt>
      <trkpt lat="47.59724387" lon="2.01532">
        <ele>148.74</ele>
        <time>2026-01-03T13:16:34.000Z</time>
      </trkpt>
      <trkpt lat="47.59721092" lon="2.01518962">
        <ele>150.09</ele>
        <time>2026-01-03T13:16:41.000Z</time>
      </trkpt>
      <trkpt lat="47.59719613" lon="2.01504835">
        <ele>150.98</ele>
        <time>2026-01-03T13:16:48.000Z</time>
      </trkpt>
      <trkpt lat="47.5971513" lon="2.01492795">
        <ele>149.75</ele>
        <time>2026-01-03T13:16:56.000Z</time>
      </trkpt>
      <trkpt lat="47.5971221" lon="2.01480187">
        <ele>151.57</ele>
        <time>2026-01-03T13:17:04.000Z</time>
      </trkpt>
      <trkpt lat="47.59709046" lon="2.01467363">
        <ele>152.03</ele>
        <time>2026-01-03T13:17:12.000Z</time>
      </trkpt>
      <trkpt lat="47.59706626" lon="2.01453145">
        <ele>156.17</ele>
        <time>2026-01-03T13:17:21.000Z</time>
      </trkpt>
      <trkpt lat="47.59703814" lon="2.01438648">
        <ele>157.1</ele>
        <time>2026-01-03T13:17:29.000Z</time>
      </trkpt>
      <trkpt lat="47.59699771" lon="2.01425195">
        <ele>156.79</ele>
        <time>2026-01-03T13:17:38.000Z</time>
      </trkpt>
      <trkpt lat="47.59696823" lon="2.01410776">
        <ele>159.16</ele>
        <time>2026-01-03T13:17:46.000Z</time>
      </trkpt>
      <trkpt lat="47.59693732" lon="2.01397871">
        <ele>158.83</ele>
        <time>2026-01-03T13:17:55.000Z</time>
      </trkpt>
      <trkpt lat="47.5968808" lon="2.01386255">
        <ele>160.27</ele>
        <time>2026-01-03T13:18:09.000Z</time>
      </trkpt>
      <trkpt lat="47.59684792" lon="2.01373722">
        <ele>159.12</ele>
        <time>2026-01-03T13:18:19.000Z</time>
      </trkpt>
      <trkpt lat="47.59683353" lon="2.01359463">
        <ele>161.01</ele>
        <time>2026-01-03T13:18:28.000Z</time>
      </trkpt>
      <trkpt lat="47.59679496" lon="2.0134681">
        <ele>160.49</ele>
        <time>2026-01-03T13:18:36.000Z</time>
      </trkpt>
      <trkpt lat="47.59676307" lon="2.01332506">
        <ele>164.7</ele>
        <time>2026-01-03T13:18:44.000Z</time>
      </trkpt>
      <trkpt lat="47.59672849" lon="2.01319471">
        <ele>162.83</ele>
        <time>2026-01-03T13:18:53.000Z</time>
      </trkpt>
      <trkpt lat="47.59669566" lon="2.01306582">
        <ele>163.47</ele>
        <time>2026-01-03T13:19:01.000Z</time>
      </trkpt>
      <trkpt lat="47.59665385" lon="2.0129464">
        <ele>162.68</ele>
        <time>2026-01-03T13:19:12.000Z</time>
      </trkpt>
      <trkpt lat="47.59661645" lon="2.01280553">
        <ele>165.83</ele>
        <time>2026-01-03T13:19:40.000Z</time>
      </trkpt>
      <trkpt lat="47.59657964" lon="2.0126713">
        <ele>163.34</ele>
        <time>2026-01-03T13:19:49.000Z</time>
      </trkpt>
      <trkpt lat="47.59654348" lon="2.01253952">
        <ele>161.63</ele>
        <time>2026-01-03T13:19:58.000Z</time>
      </trkpt>
      <trkpt lat="47.59649643" lon="2.01242082">
        <ele>161.34</ele>
        <time>2026-01-03T13:20:07.000Z</time>
      </trkpt>
      <trkpt lat="47.59646226" lon="2.01228326">
        <ele>159.9</ele>
        <time>2026-01-03T13:20:16.000Z</time>
      </trkpt>
      <trkpt lat="47.59643045" lon="2.01215832">
        <ele>160.43</ele>
        <time>2026-01-03T13:20:25.000Z</time>
      </trkpt>
      <trkpt lat="47.59638694" lon="2.01203245">
        <ele>161.81</ele>
        <time>2026-01-03T13:20:36.000Z</time>
      </trkpt>
      <trkpt lat="47.59634746" lon="2.01190287">
        <ele>162.56</ele>
        <time>2026-01-03T13:20:45.000Z</time>
      </trkpt>
      <trkpt lat="47.59631439" lon="2.01177224">
        <ele>163.11</ele>
        <time>2026-01-03T13:20:53.000Z</time>
      </trkpt>
      <trkpt lat="47.59628312" lon="2.01164577">
        <ele>162.44</ele>
        <time>2026-01-03T13:21:01.000Z</time>
      </trkpt>
      <trkpt lat="47.59625418" lon="2.01151214">
        <ele>162.05</ele>
        <time>2026-01-03T13:21:09.000Z</time>
      </trkpt>
      <trkpt lat="47.5962117" lon="2.01137655">
        <ele>162.3</ele>
        <time>2026-01-03T13:21:18.000Z</time>
      </trkpt>
      <trkpt lat="47.59617941" lon="2.01124975">
        <ele>160.53</ele>
        <time>2026-01-03T13:21:26.000Z</time>
      </trkpt>
      <trkpt lat="47.59614492" lon="2.01112112">
        <ele>160.29</ele>
        <time>2026-01-03T13:21:35.000Z</time>
      </trkpt>
      <trkpt lat="47.59611046" lon="2.01099375">
        <ele>160.53</ele>
        <time>2026-01-03T13:21:42.000Z</time>
      </trkpt>
      <trkpt lat="47.5960732" lon="2.0108665">
        <ele>160.74</ele>
        <time>2026-01-03T13:21:50.000Z</time>
      </trkpt>
      <trkpt lat="47.59603388" lon="2.01074327">
        <ele>161.19</ele>
        <time>2026-01-03T13:21:58.000Z</time>
      </trkpt>
      <trkpt lat="47.5959981" lon="2.0106119">
        <ele>161.7</ele>
        <time>2026-01-03T13:22:06.000Z</time>
      </trkpt>
      <trkpt lat="47.59596296" lon="2.01047923">
        <ele>161.4</ele>
        <time>2026-01-03T13:22:14.000Z</time>
      </trkpt>
      <trkpt lat="47.59593476" lon="2.01034861">
        <ele>161.78</ele>
        <time>2026-01-03T13:22:21.000Z</time>
      </trkpt>
      <trkpt lat="47.59589389" lon="2.01021192">
        <ele>161.43</ele>
        <time>2026-01-03T13:22:29.000Z</time>
      </trkpt>
      <trkpt lat="47.5958555" lon="2.0100777">
        <ele>160.44</ele>
        <time>2026-01-03T13:22:38.000Z</time>
      </trkpt>
      <trkpt lat="47.59582368" lon="2.00993538">
        <ele>162.37</ele>
        <time>2026-01-03T13:22:48.000Z</time>
      </trkpt>
      <trkpt lat="47.5957808" lon="2.00981195">
        <ele>164.63</ele>
        <time>2026-01-03T13:22:56.000Z</time>
      </trkpt>
      <trkpt lat="47.59575253" lon="2.0096731">
        <ele>162.26</ele>
        <time>2026-01-03T13:23:04.000Z</time>
      </trkpt>
      <trkpt lat="47.59572213" lon="2.00954625">
        <ele>164.45</ele>
        <time>2026-01-03T13:24:06.000Z</time>
      </trkpt>
      <trkpt lat="47.59569844" lon="2.00941288">
        <ele>163.87</ele>
        <time>2026-01-03T13:24:13.000Z</time>
      </trkpt>
      <trkpt lat="47.59565898" lon="2.00929169">
        <ele>164.74</ele>
        <time>2026-01-03T13:24:22.000Z</time>
      </trkpt>
      <trkpt lat="47.5956399" lon="2.00915847">
        <ele>163.37</ele>
        <time>2026-01-03T13:24:32.000Z</time>
      </trkpt>
      <trkpt lat="47.59559133" lon="2.0090286">
        <ele>157.99</ele>
        <time>2026-01-03T13:24:43.000Z</time>
      </trkpt>
      <trkpt lat="47.59556341" lon="2.00889765">
        <ele>157.89</ele>
        <time>2026-01-03T13:24:51.000Z</time>
      </trkpt>
      <trkpt lat="47.59554092" lon="2.00875739">
        <ele>158.3</ele>
        <time>2026-01-03T13:25:00.000Z</time>
      </trkpt>
      <trkpt lat="47.59551559" lon="2.00860786">
        <ele>157.51</ele>
        <time>2026-01-03T13:25:07.000Z</time>
      </trkpt>
      <trkpt lat="47.59546045" lon="2.00849359">
        <ele>158.47</ele>
        <time>2026-01-03T13:25:15.000Z</time>
      </trkpt>
      <trkpt lat="47.59541688" lon="2.00837094">
        <ele>157.95</ele>
        <time>2026-01-03T13:25:24.000Z</time>
      </trkpt>
      <trkpt lat="47.59537993" lon="2.00822865">
        <ele>156.12</ele>
        <time>2026-01-03T13:25:30.000Z</time>
      </trkpt>
      <trkpt lat="47.59528295" lon="2.00822683">
        <ele>161.38</ele>
        <time>2026-01-03T13:25:54.000Z</time>
      </trkpt>
      <trkpt lat="47.59519262" lon="2.00827108">
        <ele>161.22</ele>
        <time>2026-01-03T13:26:03.000Z</time>
      </trkpt>
      <trkpt lat="47.59509851" lon="2.00829862">
        <ele>161.67</ele>
        <time>2026-01-03T13:26:10.000Z</time>
      </trkpt>
      <trkpt lat="47.59501031" lon="2.0083368">
        <ele>164.19</ele>
        <time>2026-01-03T13:26:16.000Z</time>
      </trkpt>
      <trkpt lat="47.59492737" lon="2.00839758">
        <ele>168.93</ele>
        <time>2026-01-03T13:26:24.000Z</time>
      </trkpt>
      <trkpt lat="47.59483542" lon="2.00842759">
        <ele>168.62</ele>
        <time>2026-01-03T13:26:32.000Z</time>
      </trkpt>
      <trkpt lat="47.59474894" lon="2.00846836">
        <ele>172.46</ele>
        <time>2026-01-03T13:26:39.000Z</time>
      </trkpt>
      <trkpt lat="47.59465826" lon="2.00852181">
        <ele>176.64</ele>
        <time>2026-01-03T13:26:47.000Z</time>
      </trkpt>
      <trkpt lat="47.59456661" lon="2.00855522">
        <ele>175.97</ele>
        <time>2026-01-03T13:26:55.000Z</time>
      </trkpt>
      <trkpt lat="47.59447531" lon="2.00858238">
        <ele>174.78</ele>
        <time>2026-01-03T13:27:02.000Z</time>
      </trkpt>
      <trkpt lat="47.59438739" lon="2.00861459">
        <ele>174.75</ele>
        <time>2026-01-03T13:27:10.000Z</time>
      </trkpt>
      <trkpt lat="47.59428928" lon="2.00864065">
        <ele>173.72</ele>
        <time>2026-01-03T13:27:19.000Z</time>
      </trkpt>
      <trkpt lat="47.59420106" lon="2.00866796">
        <ele>171.27</ele>
        <time>2026-01-03T13:27:27.000Z</time>
      </trkpt>
      <trkpt lat="47.5941077" lon="2.00870852">
        <ele>172.75</ele>
        <time>2026-01-03T13:27:35.000Z</time>
      </trkpt>
      <trkpt lat="47.5940068" lon="2.0087285">
        <ele>174.48</ele>
        <time>2026-01-03T13:27:42.000Z</time>
      </trkpt>
      <trkpt lat="47.59391741" lon="2.00877156">
        <ele>171.17</ele>
        <time>2026-01-03T13:27:49.000Z</time>
      </trkpt>
      <trkpt lat="47.59382629" lon="2.00880918">
        <ele>172.65</ele>
        <time>2026-01-03T13:27:56.000Z</time>
      </trkpt>
      <trkpt lat="47.59372686" lon="2.00884187">
        <ele>171.91</ele>
        <time>2026-01-03T13:28:03.000Z</time>
      </trkpt>
      <trkpt lat="47.59364395" lon="2.00889678">
        <ele>172.17</ele>
        <time>2026-01-03T13:28:10.000Z</time>
      </trkpt>
      <trkpt lat="47.59355811" lon="2.00893907">
        <ele>170.89</ele>
        <time>2026-01-03T13:28:18.000Z</time>
      </trkpt>
      <trkpt lat="47.59346327" lon="2.00896519">
        <ele>169.45</ele>
        <time>2026-01-03T13:28:27.000Z</time>
      </trkpt>
      <trkpt lat="47.5933862" lon="2.00889078">
        <ele>166.59</ele>
        <time>2026-01-03T13:28:35.000Z</time>
      </trkpt>
      <trkpt lat="47.59334132" lon="2.00876791">
        <ele>166.28</ele>
        <time>2026-01-03T13:28:42.000Z</time>
      </trkpt>
      <trkpt lat="47.59333933" lon="2.00861762">
        <ele>166.2</ele>
        <time>2026-01-03T13:28:50.000Z</time>
      </trkpt>
      <trkpt lat="47.59329398" lon="2.0085023">
        <ele>165.57</ele>
        <time>2026-01-03T13:28:57.000Z</time>
      </trkpt>
      <trkpt lat="47.59326304" lon="2.00837442">
        <ele>167.05</ele>
        <time>2026-01-03T13:29:05.000Z</time>
      </trkpt>
      <trkpt lat="47.59323344" lon="2.00824439">
        <ele>167.06</ele>
        <time>2026-01-03T13:29:13.000Z</time>
      </trkpt>
      <trkpt lat="47.59318601" lon="2.00812174">
        <ele>169.03</ele>
        <time>2026-01-03T13:29:22.000Z</time>
      </trkpt>
      <trkpt lat="47.5931557" lon="2.00798742">
        <ele>169.72</ele>
        <time>2026-01-03T13:29:31.000Z</time>
      </trkpt>
      <trkpt lat="47.59313625" lon="2.00785756">
        <ele>170.3</ele>
        <time>2026-01-03T13:29:38.000Z</time>
      </trkpt>
      <trkpt lat="47.59309721" lon="2.00772801">
        <ele>172.07</ele>
        <time>2026-01-03T13:29:46.000Z</time>
      </trkpt>
      <trkpt lat="47.59306194" lon="2.00759311">
        <ele>171.96</ele>
        <time>2026-01-03T13:29:55.000Z</time>
      </trkpt>
      <trkpt lat="47.59302761" lon="2.00746154">
        <ele>169.48</ele>
        <time>2026-01-03T13:30:02.000Z</time>
      </trkpt>
      <trkpt lat="47.59299525" lon="2.00733273">
        <ele>168.14</ele>
        <time>2026-01-03T13:30:10.000Z</time>
      </trkpt>
      <trkpt lat="47.5929767" lon="2.00718892">
        <ele>169.51</ele>
        <time>2026-01-03T13:30:19.000Z</time>
      </trkpt>
      <trkpt lat="47.59293458" lon="2.00705446">
        <ele>167.89</ele>
        <time>2026-01-03T13:30:27.000Z</time>
      </trkpt>
      <trkpt lat="47.59287046" lon="2.00694342">
        <ele>165.86</ele>
        <time>2026-01-03T13:30:34.000Z</time>
      </trkpt>
      <trkpt lat="47.59282807" lon="2.00681182">
        <ele>166.14</ele>
        <time>2026-01-03T13:30:43.000Z</time>
      </trkpt>
      <trkpt lat="47.59277958" lon="2.00668783">
        <ele>167.89</ele>
        <time>2026-01-03T13:30:51.000Z</time>
      </trkpt>
      <trkpt lat="47.59274391" lon="2.00654455">
        <ele>167.97</ele>
        <time>2026-01-03T13:30:59.000Z</time>
      </trkpt>
      <trkpt lat="47.59273523" lon="2.00640908">
        <ele>169.32</ele>
        <time>2026-01-03T13:31:06.000Z</time>
      </trkpt>
      <trkpt lat="47.59270624" lon="2.00628023">
        <ele>165.13</ele>
        <time>2026-01-03T13:31:14.000Z</time>
      </trkpt>
      <trkpt lat="47.5926991" lon="2.00614735">
        <ele>160.42</ele>
        <time>2026-01-03T13:31:20.000Z</time>
      </trkpt>
      <trkpt lat="47.59268566" lon="2.00601317">
        <ele>158.37</ele>
        <time>2026-01-03T13:31:26.000Z</time>
      </trkpt>
      <trkpt lat="47.59263498" lon="2.00590009">
        <ele>153.71</ele>
        <time>2026-01-03T13:31:43.000Z</time>
      </trkpt>
      <trkpt lat="47.59260535" lon="2.00576508">
        <ele>154.49</ele>
        <time>2026-01-03T13:31:55.000Z</time>
      </trkpt>
      <trkpt lat="47.59254149" lon="2.0056422">
        <ele>157.39</ele>
        <time>2026-01-03T13:32:04.000Z</time>
      </trkpt>
      <trkpt lat="47.59250398" lon="2.00551099">
        <ele>154.97</ele>
        <time>2026-01-03T13:32:13.000Z</time>
      </trkpt>
      <trkpt lat="47.59250398" lon="2.00551099">
        <ele>154.97</ele>
        <time>2026-01-03T13:32:13.000Z</time>
      </trkpt>
      <trkpt lat="47.59260816" lon="2.00534636">
        <ele>161.57</ele>
        <time>2026-01-03T13:38:29.000Z</time>
      </trkpt>
      <trkpt lat="47.59260816" lon="2.00534636">
        <ele>161.57</ele>
        <time>2026-01-03T13:38:29.000Z</time>
      </trkpt>
      <trkpt lat="47.59265019" lon="2.00521819">
        <ele>159.88</ele>
        <time>2026-01-03T13:39:01.000Z</time>
      </trkpt>
      <trkpt lat="47.59269333" lon="2.00509296">
        <ele>160.5</ele>
        <time>2026-01-03T13:39:08.000Z</time>
      </trkpt>
      <trkpt lat="47.59273126" lon="2.00496419">
        <ele>162.16</ele>
        <time>2026-01-03T13:39:16.000Z</time>
      </trkpt>
      <trkpt lat="47.59277277" lon="2.00484076">
        <ele>160.53</ele>
        <time>2026-01-03T13:39:23.000Z</time>
      </trkpt>
      <trkpt lat="47.59281599" lon="2.00471039">
        <ele>159.74</ele>
        <time>2026-01-03T13:39:30.000Z</time>
      </trkpt>
      <trkpt lat="47.59284111" lon="2.0045647">
        <ele>160.22</ele>
        <time>2026-01-03T13:39:38.000Z</time>
      </trkpt>
      <trkpt lat="47.59285848" lon="2.00443345">
        <ele>159.98</ele>
        <time>2026-01-03T13:39:45.000Z</time>
      </trkpt>
      <trkpt lat="47.59286098" lon="2.00428313">
        <ele>161.15</ele>
        <time>2026-01-03T13:39:53.000Z</time>
      </trkpt>
      <trkpt lat="47.59286652" lon="2.00414566">
        <ele>159.58</ele>
        <time>2026-01-03T13:40:00.000Z</time>
      </trkpt>
      <trkpt lat="47.59286513" lon="2.0039993">
        <ele>159.41</ele>
        <time>2026-01-03T13:40:08.000Z</time>
      </trkpt>
      <trkpt lat="47.592859" lon="2.00385157">
        <ele>159.7</ele>
        <time>2026-01-03T13:40:15.000Z</time>
      </trkpt>
      <trkpt lat="47.59285409" lon="2.003705">
        <ele>161.2</ele>
        <time>2026-01-03T13:40:22.000Z</time>
      </trkpt>
      <trkpt lat="47.59284392" lon="2.00356647">
        <ele>161.65</ele>
        <time>2026-01-03T13:40:29.000Z</time>
      </trkpt>
      <trkpt lat="47.5928271" lon="2.00342833">
        <ele>161.33</ele>
        <time>2026-01-03T13:40:36.000Z</time>
      </trkpt>
      <trkpt lat="47.59280671" lon="2.00329301">
        <ele>163.28</ele>
        <time>2026-01-03T13:40:44.000Z</time>
      </trkpt>
      <trkpt lat="47.59278681" lon="2.00314795">
        <ele>162.88</ele>
        <time>2026-01-03T13:40:52.000Z</time>
      </trkpt>
      <trkpt lat="47.59279323" lon="2.00300512">
        <ele>163.18</ele>
        <time>2026-01-03T13:40:59.000Z</time>
      </trkpt>
      <trkpt lat="47.59279633" lon="2.00287141">
        <ele>162.66</ele>
        <time>2026-01-03T13:41:06.000Z</time>
      </trkpt>
      <trkpt lat="47.59281996" lon="2.0027427">
        <ele>162.08</ele>
        <time>2026-01-03T13:41:13.000Z</time>
      </trkpt>
      <trkpt lat="47.59284391" lon="2.00261022">
        <ele>160.72</ele>
        <time>2026-01-03T13:41:20.000Z</time>
      </trkpt>
      <trkpt lat="47.59288053" lon="2.00248636">
        <ele>162.01</ele>
        <time>2026-01-03T13:41:27.000Z</time>
      </trkpt>
      <trkpt lat="47.59289409" lon="2.0023413">
        <ele>162.66</ele>
        <time>2026-01-03T13:41:35.000Z</time>
      </trkpt>
      <trkpt lat="47.59292458" lon="2.00220553">
        <ele>164.5</ele>
        <time>2026-01-03T13:41:43.000Z</time>
      </trkpt>
      <trkpt lat="47.59296717" lon="2.00207251">
        <ele>162.97</ele>
        <time>2026-01-03T13:41:51.000Z</time>
      </trkpt>
      <trkpt lat="47.59299596" lon="2.00193022">
        <ele>164.62</ele>
        <time>2026-01-03T13:41:59.000Z</time>
      </trkpt>
      <trkpt lat="47.59302251" lon="2.00179475">
        <ele>164.77</ele>
        <time>2026-01-03T13:42:07.000Z</time>
      </trkpt>
      <trkpt lat="47.59305286" lon="2.00165933">
        <ele>164.3</ele>
        <time>2026-01-03T13:42:14.000Z</time>
      </trkpt>
      <trkpt lat="47.59309222" lon="2.00152976">
        <ele>163.7</ele>
        <time>2026-01-03T13:42:22.000Z</time>
      </trkpt>
      <trkpt lat="47.59310671" lon="2.00137759">
        <ele>166.4</ele>
        <time>2026-01-03T13:42:29.000Z</time>
      </trkpt>
      <trkpt lat="47.59314588" lon="2.00123779">
        <ele>165.97</ele>
        <time>2026-01-03T13:42:37.000Z</time>
      </trkpt>
      <trkpt lat="47.59319839" lon="2.00110473">
        <ele>165.02</ele>
        <time>2026-01-03T13:42:45.000Z</time>
      </trkpt>
      <trkpt lat="47.59325263" lon="2.00098132">
        <ele>161.96</ele>
        <time>2026-01-03T13:42:53.000Z</time>
      </trkpt>
      <trkpt lat="47.59328707" lon="2.00084143">
        <ele>160.15</ele>
        <time>2026-01-03T13:43:01.000Z</time>
      </trkpt>
      <trkpt lat="47.59332859" lon="2.00072092">
        <ele>159.76</ele>
        <time>2026-01-03T13:43:08.000Z</time>
      </trkpt>
      <trkpt lat="47.59333272" lon="2.00057231">
        <ele>162.53</ele>
        <time>2026-01-03T13:43:16.000Z</time>
      </trkpt>
      <trkpt lat="47.59329884" lon="2.00043378">
        <ele>164.05</ele>
        <time>2026-01-03T13:43:24.000Z</time>
      </trkpt>
      <trkpt lat="47.59326059" lon="2.00031327">
        <ele>166.01</ele>
        <time>2026-01-03T13:43:32.000Z</time>
      </trkpt>
      <trkpt lat="47.59321866" lon="2.00019035">
        <ele>166.63</ele>
        <time>2026-01-03T13:43:41.000Z</time>
      </trkpt>
      <trkpt lat="47.59319042" lon="2.00005202">
        <ele>168.62</ele>
        <time>2026-01-03T13:43:49.000Z</time>
      </trkpt>
      <trkpt lat="47.59315616" lon="1.9999114">
        <ele>170.01</ele>
        <time>2026-01-03T13:43:57.000Z</time>
      </trkpt>
      <trkpt lat="47.59310708" lon="1.99978417">
        <ele>169.81</ele>
        <time>2026-01-03T13:44:06.000Z</time>
      </trkpt>
      <trkpt lat="47.59308414" lon="1.99963953">
        <ele>168.07</ele>
        <time>2026-01-03T13:44:14.000Z</time>
      </trkpt>
      <trkpt lat="47.59304141" lon="1.99951471">
        <ele>170.74</ele>
        <time>2026-01-03T13:44:21.000Z</time>
      </trkpt>
      <trkpt lat="47.59300448" lon="1.99938393">
        <ele>170.88</ele>
        <time>2026-01-03T13:44:28.000Z</time>
      </trkpt>
      <trkpt lat="47.59296738" lon="1.99924503">
        <ele>173.49</ele>
        <time>2026-01-03T13:44:36.000Z</time>
      </trkpt>
      <trkpt lat="47.59293067" lon="1.99910711">
        <ele>170.93</ele>
        <time>2026-01-03T13:44:44.000Z</time>
      </trkpt>
      <trkpt lat="47.59289375" lon="1.99897827">
        <ele>169.65</ele>
        <time>2026-01-03T13:44:52.000Z</time>
      </trkpt>
      <trkpt lat="47.59287123" lon="1.99883555">
        <ele>166.42</ele>
        <time>2026-01-03T13:45:01.000Z</time>
      </trkpt>
      <trkpt lat="47.59281341" lon="1.9987274">
        <ele>167.6</ele>
        <time>2026-01-03T13:45:08.000Z</time>
      </trkpt>
      <trkpt lat="47.59277547" lon="1.99860178">
        <ele>165.8</ele>
        <time>2026-01-03T13:45:17.000Z</time>
      </trkpt>
      <trkpt lat="47.59274443" lon="1.99846657">
        <ele>165.65</ele>
        <time>2026-01-03T13:45:27.000Z</time>
      </trkpt>
      <trkpt lat="47.59271314" lon="1.99834151">
        <ele>168.14</ele>
        <time>2026-01-03T13:45:35.000Z</time>
      </trkpt>
      <trkpt lat="47.5926778" lon="1.99821501">
        <ele>169.05</ele>
        <time>2026-01-03T13:45:44.000Z</time>
      </trkpt>
      <trkpt lat="47.59263954" lon="1.99809428">
        <ele>168.27</ele>
        <time>2026-01-03T13:45:52.000Z</time>
      </trkpt>
      <trkpt lat="47.59259896" lon="1.99796652">
        <ele>168.57</ele>
        <time>2026-01-03T13:46:01.000Z</time>
      </trkpt>
      <trkpt lat="47.5925528" lon="1.99784724">
        <ele>168.22</ele>
        <time>2026-01-03T13:46:10.000Z</time>
      </trkpt>
      <trkpt lat="47.59251848" lon="1.99770725">
        <ele>166.48</ele>
        <time>2026-01-03T13:46:18.000Z</time>
      </trkpt>
      <trkpt lat="47.59248824" lon="1.99757306">
        <ele>166.04</ele>
        <time>2026-01-03T13:46:27.000Z</time>
      </trkpt>
      <trkpt lat="47.59245872" lon="1.99744252">
        <ele>165.68</ele>
        <time>2026-01-03T13:46:36.000Z</time>
      </trkpt>
      <trkpt lat="47.59242765" lon="1.99731223">
        <ele>165.9</ele>
        <time>2026-01-03T13:46:45.000Z</time>
      </trkpt>
      <trkpt lat="47.59238834" lon="1.99718843">
        <ele>164.93</ele>
        <time>2026-01-03T13:46:53.000Z</time>
      </trkpt>
      <trkpt lat="47.59238088" lon="1.99704747">
        <ele>161.81</ele>
        <time>2026-01-03T13:47:01.000Z</time>
      </trkpt>
      <trkpt lat="47.59236445" lon="1.99689957">
        <ele>161.67</ele>
        <time>2026-01-03T13:47:10.000Z</time>
      </trkpt>
      <trkpt lat="47.59233082" lon="1.99677396">
        <ele>161.53</ele>
        <time>2026-01-03T13:47:19.000Z</time>
      </trkpt>
      <trkpt lat="47.59229398" lon="1.99663914">
        <ele>161.12</ele>
        <time>2026-01-03T13:47:47.000Z</time>
      </trkpt>
      <trkpt lat="47.59225508" lon="1.99651062">
        <ele>160.15</ele>
        <time>2026-01-03T13:48:00.000Z</time>
      </trkpt>
      <trkpt lat="47.59221817" lon="1.99638244">
        <ele>160.47</ele>
        <time>2026-01-03T13:48:09.000Z</time>
      </trkpt>
      <trkpt lat="47.59218484" lon="1.99624319">
        <ele>160.09</ele>
        <time>2026-01-03T13:48:18.000Z</time>
      </trkpt>
      <trkpt lat="47.59215096" lon="1.99610709">
        <ele>160.29</ele>
        <time>2026-01-03T13:48:27.000Z</time>
      </trkpt>
      <trkpt lat="47.59211659" lon="1.99597432">
        <ele>160.26</ele>
        <time>2026-01-03T13:48:37.000Z</time>
      </trkpt>
      <trkpt lat="47.59208227" lon="1.9958362">
        <ele>159.15</ele>
        <time>2026-01-03T13:48:46.000Z</time>
      </trkpt>
      <trkpt lat="47.59203908" lon="1.99570297">
        <ele>160.01</ele>
        <time>2026-01-03T13:48:56.000Z</time>
      </trkpt>
      <trkpt lat="47.59200067" lon="1.9955783">
        <ele>162.58</ele>
        <time>2026-01-03T13:49:06.000Z</time>
      </trkpt>
      <trkpt lat="47.59197612" lon="1.99544226">
        <ele>161.39</ele>
        <time>2026-01-03T13:49:15.000Z</time>
      </trkpt>
      <trkpt lat="47.59192603" lon="1.99531364">
        <ele>163.33</ele>
        <time>2026-01-03T13:49:23.000Z</time>
      </trkpt>
      <trkpt lat="47.59188396" lon="1.9951886">
        <ele>164.31</ele>
        <time>2026-01-03T13:49:31.000Z</time>
      </trkpt>
      <trkpt lat="47.59186315" lon="1.99504761">
        <ele>164.97</ele>
        <time>2026-01-03T13:49:41.000Z</time>
      </trkpt>
      <trkpt lat="47.59182" lon="1.99492367">
        <ele>163.9</ele>
        <time>2026-01-03T13:49:51.000Z</time>
      </trkpt>
      <trkpt lat="47.59178142" lon="1.99479158">
        <ele>164.56</ele>
        <time>2026-01-03T13:50:00.000Z</time>
      </trkpt>
      <trkpt lat="47.59174537" lon="1.99466051">
        <ele>164.57</ele>
        <time>2026-01-03T13:50:08.000Z</time>
      </trkpt>
      <trkpt lat="47.5916976" lon="1.99453651">
        <ele>166.69</ele>
        <time>2026-01-03T13:50:16.000Z</time>
      </trkpt>
      <trkpt lat="47.59163508" lon="1.99443898">
        <ele>165.98</ele>
        <time>2026-01-03T13:50:24.000Z</time>
      </trkpt>
      <trkpt lat="47.59158532" lon="1.99431906">
        <ele>163.87</ele>
        <time>2026-01-03T13:50:32.000Z</time>
      </trkpt>
      <trkpt lat="47.59157787" lon="1.99417175">
        <ele>162.23</ele>
        <time>2026-01-03T13:50:41.000Z</time>
      </trkpt>
      <trkpt lat="47.59155762" lon="1.99402745">
        <ele>161.97</ele>
        <time>2026-01-03T13:50:49.000Z</time>
      </trkpt>
      <trkpt lat="47.59151645" lon="1.99389532">
        <ele>162.8</ele>
        <time>2026-01-03T13:50:59.000Z</time>
      </trkpt>
      <trkpt lat="47.59147741" lon="1.99377407">
        <ele>165.79</ele>
        <time>2026-01-03T13:51:07.000Z</time>
      </trkpt>
      <trkpt lat="47.591444" lon="1.99364695">
        <ele>166.04</ele>
        <time>2026-01-03T13:51:16.000Z</time>
      </trkpt>
      <trkpt lat="47.59147307" lon="1.99350856">
        <ele>166.8</ele>
        <time>2026-01-03T13:51:23.000Z</time>
      </trkpt>
      <trkpt lat="47.59156055" lon="1.99346683">
        <ele>163.01</ele>
        <time>2026-01-03T13:51:30.000Z</time>
      </trkpt>
      <trkpt lat="47.59163211" lon="1.99338306">
        <ele>165.87</ele>
        <time>2026-01-03T13:51:37.000Z</time>
      </trkpt>
      <trkpt lat="47.5916945" lon="1.9932831">
        <ele>167.49</ele>
        <time>2026-01-03T13:51:44.000Z</time>
      </trkpt>
      <trkpt lat="47.59176145" lon="1.99318388">
        <ele>169.6</ele>
        <time>2026-01-03T13:51:51.000Z</time>
      </trkpt>
      <trkpt lat="47.59183718" lon="1.99309425">
        <ele>169.53</ele>
        <time>2026-01-03T13:51:58.000Z</time>
      </trkpt>
      <trkpt lat="47.59192248" lon="1.99303287">
        <ele>169.8</ele>
        <time>2026-01-03T13:52:05.000Z</time>
      </trkpt>
      <trkpt lat="47.59199829" lon="1.99294373">
        <ele>170.35</ele>
        <time>2026-01-03T13:52:13.000Z</time>
      </trkpt>
      <trkpt lat="47.59207724" lon="1.9928633">
        <ele>171.05</ele>
        <time>2026-01-03T13:52:21.000Z</time>
      </trkpt>
      <trkpt lat="47.59214981" lon="1.99278374">
        <ele>172.86</ele>
        <time>2026-01-03T13:52:29.000Z</time>
      </trkpt>
      <trkpt lat="47.59224068" lon="1.99273439">
        <ele>173.95</ele>
        <time>2026-01-03T13:52:38.000Z</time>
      </trkpt>
      <trkpt lat="47.59233868" lon="1.99274734">
        <ele>172.33</ele>
        <time>2026-01-03T13:52:46.000Z</time>
      </trkpt>
      <trkpt lat="47.59243422" lon="1.99273902">
        <ele>171.73</ele>
        <time>2026-01-03T13:52:55.000Z</time>
      </trkpt>
      <trkpt lat="47.59252742" lon="1.99273351">
        <ele>172.35</ele>
        <time>2026-01-03T13:53:04.000Z</time>
      </trkpt>
      <trkpt lat="47.59262142" lon="1.99268602">
        <ele>171.38</ele>
        <time>2026-01-03T13:53:14.000Z</time>
      </trkpt>
      <trkpt lat="47.59271564" lon="1.99267232">
        <ele>169.82</ele>
        <time>2026-01-03T13:53:22.000Z</time>
      </trkpt>
      <trkpt lat="47.59281175" lon="1.99267917">
        <ele>170.78</ele>
        <time>2026-01-03T13:53:30.000Z</time>
      </trkpt>
      <trkpt lat="47.59290741" lon="1.99266148">
        <ele>171.92</ele>
        <time>2026-01-03T13:53:41.000Z</time>
      </trkpt>
      <trkpt lat="47.59300438" lon="1.99266043">
        <ele>168.63</ele>
        <time>2026-01-03T13:53:57.000Z</time>
      </trkpt>
      <trkpt lat="47.59309549" lon="1.99265545">
        <ele>168.97</ele>
        <time>2026-01-03T13:54:05.000Z</time>
      </trkpt>
      <trkpt lat="47.59318765" lon="1.99264523">
        <ele>171.36</ele>
        <time>2026-01-03T13:54:14.000Z</time>
      </trkpt>
      <trkpt lat="47.5932817" lon="1.99265755">
        <ele>168.65</ele>
        <time>2026-01-03T13:54:21.000Z</time>
      </trkpt>
      <trkpt lat="47.59337325" lon="1.99265619">
        <ele>168.51</ele>
        <time>2026-01-03T13:54:28.000Z</time>
      </trkpt>
      <trkpt lat="47.59346979" lon="1.99267081">
        <ele>168.92</ele>
        <time>2026-01-03T13:54:37.000Z</time>
      </trkpt>
      <trkpt lat="47.59357216" lon="1.99266854">
        <ele>168.07</ele>
        <time>2026-01-03T13:54:46.000Z</time>
      </trkpt>
      <trkpt lat="47.59366561" lon="1.99266509">
        <ele>167.33</ele>
        <time>2026-01-03T13:54:54.000Z</time>
      </trkpt>
      <trkpt lat="47.59375958" lon="1.9926475">
        <ele>169.9</ele>
        <time>2026-01-03T13:55:03.000Z</time>
      </trkpt>
      <trkpt lat="47.59385099" lon="1.99265007">
        <ele>169.05</ele>
        <time>2026-01-03T13:55:11.000Z</time>
      </trkpt>
      <trkpt lat="47.59394538" lon="1.99268105">
        <ele>169.22</ele>
        <time>2026-01-03T13:55:19.000Z</time>
      </trkpt>
      <trkpt lat="47.59403691" lon="1.99271507">
        <ele>169.16</ele>
        <time>2026-01-03T13:55:26.000Z</time>
      </trkpt>
      <trkpt lat="47.59412689" lon="1.99276889">
        <ele>169.85</ele>
        <time>2026-01-03T13:55:34.000Z</time>
      </trkpt>
      <trkpt lat="47.59421981" lon="1.99282051">
        <ele>170.88</ele>
        <time>2026-01-03T13:55:42.000Z</time>
      </trkpt>
      <trkpt lat="47.59430613" lon="1.99287204">
        <ele>169.73</ele>
        <time>2026-01-03T13:55:49.000Z</time>
      </trkpt>
      <trkpt lat="47.59439455" lon="1.99294429">
        <ele>168.31</ele>
        <time>2026-01-03T13:55:58.000Z</time>
      </trkpt>
      <trkpt lat="47.59448383" lon="1.99300445">
        <ele>167.93</ele>
        <time>2026-01-03T13:56:07.000Z</time>
      </trkpt>
      <trkpt lat="47.59456981" lon="1.99307474">
        <ele>165.27</ele>
        <time>2026-01-03T13:56:16.000Z</time>
      </trkpt>
      <trkpt lat="47.59465447" lon="1.99314677">
        <ele>164.93</ele>
        <time>2026-01-03T13:56:25.000Z</time>
      </trkpt>
      <trkpt lat="47.59473907" lon="1.99322524">
        <ele>165.37</ele>
        <time>2026-01-03T13:56:34.000Z</time>
      </trkpt>
      <trkpt lat="47.59482222" lon="1.99329014">
        <ele>168.27</ele>
        <time>2026-01-03T13:56:44.000Z</time>
      </trkpt>
      <trkpt lat="47.59490299" lon="1.99336152">
        <ele>167.82</ele>
        <time>2026-01-03T13:56:53.000Z</time>
      </trkpt>
      <trkpt lat="47.5949962" lon="1.99341008">
        <ele>169.29</ele>
        <time>2026-01-03T13:57:03.000Z</time>
      </trkpt>
      <trkpt lat="47.59508196" lon="1.99347323">
        <ele>170.78</ele>
        <time>2026-01-03T13:57:13.000Z</time>
      </trkpt>
      <trkpt lat="47.59517615" lon="1.99351363">
        <ele>170.15</ele>
        <time>2026-01-03T13:57:24.000Z</time>
      </trkpt>
      <trkpt lat="47.59526863" lon="1.99356615">
        <ele>169.3</ele>
        <time>2026-01-03T13:57:33.000Z</time>
      </trkpt>
      <trkpt lat="47.59536131" lon="1.99355829">
        <ele>171.51</ele>
        <time>2026-01-03T13:57:41.000Z</time>
      </trkpt>
      <trkpt lat="47.59545406" lon="1.99352089">
        <ele>170.98</ele>
        <time>2026-01-03T13:57:50.000Z</time>
      </trkpt>
      <trkpt lat="47.59554271" lon="1.99347666">
        <ele>171.22</ele>
        <time>2026-01-03T13:57:58.000Z</time>
      </trkpt>
      <trkpt lat="47.59563392" lon="1.99342573">
        <ele>173.4</ele>
        <time>2026-01-03T13:58:07.000Z</time>
      </trkpt>
      <trkpt lat="47.59571296" lon="1.99333957">
        <ele>173.41</ele>
        <time>2026-01-03T13:58:15.000Z</time>
      </trkpt>
      <trkpt lat="47.5957408" lon="1.9932049">
        <ele>174.25</ele>
        <time>2026-01-03T13:58:24.000Z</time>
      </trkpt>
      <trkpt lat="47.5957203" lon="1.99307033">
        <ele>170.92</ele>
        <time>2026-01-03T13:58:35.000Z</time>
      </trkpt>
      <trkpt lat="47.59568653" lon="1.99293917">
        <ele>169.32</ele>
        <time>2026-01-03T13:58:58.000Z</time>
      </trkpt>
      <trkpt lat="47.59567405" lon="1.99279657">
        <ele>166.63</ele>
        <time>2026-01-03T13:59:07.000Z</time>
      </trkpt>
      <trkpt lat="47.59570158" lon="1.99265444">
        <ele>165.72</ele>
        <time>2026-01-03T13:59:14.000Z</time>
      </trkpt>
      <trkpt lat="47.59573899" lon="1.99252346">
        <ele>164.03</ele>
        <time>2026-01-03T13:59:21.000Z</time>
      </trkpt>
      <trkpt lat="47.59578615" lon="1.99239016">
        <ele>163.3</ele>
        <time>2026-01-03T13:59:29.000Z</time>
      </trkpt>
      <trkpt lat="47.59583385" lon="1.99225749">
        <ele>164.41</ele>
        <time>2026-01-03T13:59:37.000Z</time>
      </trkpt>
      <trkpt lat="47.59587928" lon="1.99212584">
        <ele>166.87</ele>
        <time>2026-01-03T13:59:46.000Z</time>
      </trkpt>
      <trkpt lat="47.59593095" lon="1.99201657">
        <ele>166.53</ele>
        <time>2026-01-03T13:59:54.000Z</time>
      </trkpt>
      <trkpt lat="47.59599172" lon="1.99190234">
        <ele>164.73</ele>
        <time>2026-01-03T14:00:02.000Z</time>
      </trkpt>
      <trkpt lat="47.59606241" lon="1.99181321">
        <ele>164.23</ele>
        <time>2026-01-03T14:00:10.000Z</time>
      </trkpt>
      <trkpt lat="47.59615298" lon="1.99175844">
        <ele>163.74</ele>
        <time>2026-01-03T14:00:18.000Z</time>
      </trkpt>
      <trkpt lat="47.59623735" lon="1.99169565">
        <ele>163.68</ele>
        <time>2026-01-03T14:00:26.000Z</time>
      </trkpt>
      <trkpt lat="47.59632708" lon="1.99165201">
        <ele>162.41</ele>
        <time>2026-01-03T14:00:34.000Z</time>
      </trkpt>
      <trkpt lat="47.59641802" lon="1.99158862">
        <ele>161.99</ele>
        <time>2026-01-03T14:00:42.000Z</time>
      </trkpt>
      <trkpt lat="47.59650278" lon="1.99152146">
        <ele>162.76</ele>
        <time>2026-01-03T14:00:50.000Z</time>
      </trkpt>
      <trkpt lat="47.5965852" lon="1.9914608">
        <ele>162.66</ele>
        <time>2026-01-03T14:00:58.000Z</time>
      </trkpt>
      <trkpt lat="47.59666721" lon="1.99138754">
        <ele>162.41</ele>
        <time>2026-01-03T14:01:07.000Z</time>
      </trkpt>
      <trkpt lat="47.59674805" lon="1.99132432">
        <ele>162.01</ele>
        <time>2026-01-03T14:01:14.000Z</time>
      </trkpt>
      <trkpt lat="47.59684154" lon="1.99127082">
        <ele>160.87</ele>
        <time>2026-01-03T14:01:22.000Z</time>
      </trkpt>
      <trkpt lat="47.59692782" lon="1.991212">
        <ele>162.04</ele>
        <time>2026-01-03T14:01:29.000Z</time>
      </trkpt>
      <trkpt lat="47.59700109" lon="1.99113057">
        <ele>162.9</ele>
        <time>2026-01-03T14:01:36.000Z</time>
      </trkpt>
      <trkpt lat="47.59709055" lon="1.99106921">
        <ele>164.01</ele>
        <time>2026-01-03T14:01:43.000Z</time>
      </trkpt>
      <trkpt lat="47.59717508" lon="1.99099483">
        <ele>163.32</ele>
        <time>2026-01-03T14:01:51.000Z</time>
      </trkpt>
      <trkpt lat="47.59724828" lon="1.99091559">
        <ele>164.5</ele>
        <time>2026-01-03T14:01:58.000Z</time>
      </trkpt>
      <trkpt lat="47.59731552" lon="1.99082641">
        <ele>163.63</ele>
        <time>2026-01-03T14:02:05.000Z</time>
      </trkpt>
      <trkpt lat="47.59738992" lon="1.99073625">
        <ele>163.36</ele>
        <time>2026-01-03T14:02:13.000Z</time>
      </trkpt>
      <trkpt lat="47.59746897" lon="1.99066225">
        <ele>162.48</ele>
        <time>2026-01-03T14:02:20.000Z</time>
      </trkpt>
      <trkpt lat="47.59751892" lon="1.99054441">
        <ele>162.76</ele>
        <time>2026-01-03T14:02:27.000Z</time>
      </trkpt>
      <trkpt lat="47.59758317" lon="1.9904409">
        <ele>163.18</ele>
        <time>2026-01-03T14:02:34.000Z</time>
      </trkpt>
      <trkpt lat="47.59766439" lon="1.99038092">
        <ele>163.63</ele>
        <time>2026-01-03T14:02:40.000Z</time>
      </trkpt>
      <trkpt lat="47.59774376" lon="1.99030965">
        <ele>163.73</ele>
        <time>2026-01-03T14:02:47.000Z</time>
      </trkpt>
      <trkpt lat="47.59781928" lon="1.99021305">
        <ele>164.21</ele>
        <time>2026-01-03T14:02:56.000Z</time>
      </trkpt>
      <trkpt lat="47.59790406" lon="1.99012467">
        <ele>163.56</ele>
        <time>2026-01-03T14:03:05.000Z</time>
      </trkpt>
      <trkpt lat="47.59798527" lon="1.99005097">
        <ele>161.99</ele>
        <time>2026-01-03T14:03:12.000Z</time>
      </trkpt>
      <trkpt lat="47.59807313" lon="1.98999145">
        <ele>160.73</ele>
        <time>2026-01-03T14:03:21.000Z</time>
      </trkpt>
      <trkpt lat="47.59815451" lon="1.98990979">
        <ele>159.58</ele>
        <time>2026-01-03T14:03:29.000Z</time>
      </trkpt>
      <trkpt lat="47.59824048" lon="1.98984251">
        <ele>159.96</ele>
        <time>2026-01-03T14:03:37.000Z</time>
      </trkpt>
      <trkpt lat="47.5983138" lon="1.98976064">
        <ele>159.01</ele>
        <time>2026-01-03T14:03:46.000Z</time>
      </trkpt>
      <trkpt lat="47.5984058" lon="1.9897046">
        <ele>158.92</ele>
        <time>2026-01-03T14:03:54.000Z</time>
      </trkpt>
      <trkpt lat="47.59848324" lon="1.98962843">
        <ele>158.09</ele>
        <time>2026-01-03T14:04:01.000Z</time>
      </trkpt>
      <trkpt lat="47.59857146" lon="1.98956336">
        <ele>158.75</ele>
        <time>2026-01-03T14:04:09.000Z</time>
      </trkpt>
      <trkpt lat="47.59863915" lon="1.98947497">
        <ele>159.41</ele>
        <time>2026-01-03T14:04:17.000Z</time>
      </trkpt>
      <trkpt lat="47.59872941" lon="1.9894401">
        <ele>157.84</ele>
        <time>2026-01-03T14:04:25.000Z</time>
      </trkpt>
      <trkpt lat="47.59882289" lon="1.98945169">
        <ele>156.54</ele>
        <time>2026-01-03T14:04:33.000Z</time>
      </trkpt>
      <trkpt lat="47.59890186" lon="1.98953837">
        <ele>155.06</ele>
        <time>2026-01-03T14:04:42.000Z</time>
      </trkpt>
      <trkpt lat="47.59898769" lon="1.98961833">
        <ele>155.57</ele>
        <time>2026-01-03T14:04:51.000Z</time>
      </trkpt>
      <trkpt lat="47.59906406" lon="1.98969065">
        <ele>155.79</ele>
        <time>2026-01-03T14:04:59.000Z</time>
      </trkpt>
      <trkpt lat="47.59912683" lon="1.98979079">
        <ele>155.69</ele>
        <time>2026-01-03T14:05:06.000Z</time>
      </trkpt>
      <trkpt lat="47.59918241" lon="1.98989711">
        <ele>156.64</ele>
        <time>2026-01-03T14:05:13.000Z</time>
      </trkpt>
      <trkpt lat="47.59923731" lon="1.99001701">
        <ele>156.48</ele>
        <time>2026-01-03T14:05:21.000Z</time>
      </trkpt>
      <trkpt lat="47.59925357" lon="1.99015791">
        <ele>156.07</ele>
        <time>2026-01-03T14:05:42.000Z</time>
      </trkpt>
      <trkpt lat="47.59922735" lon="1.99029248">
        <ele>153.82</ele>
        <time>2026-01-03T14:05:52.000Z</time>
      </trkpt>
      <trkpt lat="47.59923346" lon="1.99044158">
        <ele>155.7</ele>
        <time>2026-01-03T14:06:00.000Z</time>
      </trkpt>
      <trkpt lat="47.59922624" lon="1.99058645">
        <ele>156.11</ele>
        <time>2026-01-03T14:06:08.000Z</time>
      </trkpt>
      <trkpt lat="47.59921839" lon="1.99073022">
        <ele>155.99</ele>
        <time>2026-01-03T14:06:16.000Z</time>
      </trkpt>
      <trkpt lat="47.59920166" lon="1.99087021">
        <ele>155.79</ele>
        <time>2026-01-03T14:06:25.000Z</time>
      </trkpt>
      <trkpt lat="47.59918658" lon="1.99101143">
        <ele>154.79</ele>
        <time>2026-01-03T14:06:35.000Z</time>
      </trkpt>
      <trkpt lat="47.59916962" lon="1.99114602">
        <ele>154.41</ele>
        <time>2026-01-03T14:06:46.000Z</time>
      </trkpt>
      <trkpt lat="47.59917141" lon="1.99128107">
        <ele>156.01</ele>
        <time>2026-01-03T14:06:56.000Z</time>
      </trkpt>
      <trkpt lat="47.59918001" lon="1.99142256">
        <ele>156.01</ele>
        <time>2026-01-03T14:07:06.000Z</time>
      </trkpt>
      <trkpt lat="47.59916736" lon="1.99155975">
        <ele>155.98</ele>
        <time>2026-01-03T14:07:15.000Z</time>
      </trkpt>
      <trkpt lat="47.5991528" lon="1.9916927">
        <ele>155.48</ele>
        <time>2026-01-03T14:07:23.000Z</time>
      </trkpt>
      <trkpt lat="47.5991415" lon="1.99182512">
        <ele>154.29</ele>
        <time>2026-01-03T14:07:34.000Z</time>
      </trkpt>
      <trkpt lat="47.59913963" lon="1.99196742">
        <ele>155.38</ele>
        <time>2026-01-03T14:07:44.000Z</time>
      </trkpt>
      <trkpt lat="47.59912046" lon="1.99210559">
        <ele>157.11</ele>
        <time>2026-01-03T14:07:53.000Z</time>
      </trkpt>
      <trkpt lat="47.59911732" lon="1.99224574">
        <ele>156.84</ele>
        <time>2026-01-03T14:08:02.000Z</time>
      </trkpt>
      <trkpt lat="47.59910918" lon="1.99238397">
        <ele>156.88</ele>
        <time>2026-01-03T14:08:11.000Z</time>
      </trkpt>
      <trkpt lat="47.59911461" lon="1.99252278">
        <ele>161.15</ele>
        <time>2026-01-03T14:08:22.000Z</time>
      </trkpt>
      <trkpt lat="47.59908031" lon="1.99265533">
        <ele>161.79</ele>
        <time>2026-01-03T14:08:31.000Z</time>
      </trkpt>
      <trkpt lat="47.59906952" lon="1.99279816">
        <ele>161.51</ele>
        <time>2026-01-03T14:08:40.000Z</time>
      </trkpt>
      <trkpt lat="47.59905683" lon="1.99293335">
        <ele>161.74</ele>
        <time>2026-01-03T14:08:49.000Z</time>
      </trkpt>
      <trkpt lat="47.59904242" lon="1.99307674">
        <ele>160.22</ele>
        <time>2026-01-03T14:09:00.000Z</time>
      </trkpt>
      <trkpt lat="47.59903646" lon="1.99322321">
        <ele>161.4</ele>
        <time>2026-01-03T14:09:10.000Z</time>
      </trkpt>
      <trkpt lat="47.59901649" lon="1.99336187">
        <ele>160.55</ele>
        <time>2026-01-03T14:09:20.000Z</time>
      </trkpt>
      <trkpt lat="47.5990111" lon="1.99351065">
        <ele>159.47</ele>
        <time>2026-01-03T14:09:30.000Z</time>
      </trkpt>
      <trkpt lat="47.59900795" lon="1.99364505">
        <ele>161.33</ele>
        <time>2026-01-03T14:09:40.000Z</time>
      </trkpt>
      <trkpt lat="47.59901636" lon="1.99378295">
        <ele>162.5</ele>
        <time>2026-01-03T14:09:49.000Z</time>
      </trkpt>
      <trkpt lat="47.59904098" lon="1.993911">
        <ele>162.89</ele>
        <time>2026-01-03T14:09:58.000Z</time>
      </trkpt>
      <trkpt lat="47.59905817" lon="1.99404765">
        <ele>165.78</ele>
        <time>2026-01-03T14:10:08.000Z</time>
      </trkpt>
      <trkpt lat="47.59914461" lon="1.99410613">
        <ele>165.82</ele>
        <time>2026-01-03T14:10:17.000Z</time>
      </trkpt>
      <trkpt lat="47.59923731" lon="1.99412754">
        <ele>166.25</ele>
        <time>2026-01-03T14:10:29.000Z</time>
      </trkpt>
      <trkpt lat="47.59933057" lon="1.99416146">
        <ele>163.86</ele>
        <time>2026-01-03T14:10:37.000Z</time>
      </trkpt>
      <trkpt lat="47.59942471" lon="1.99417516">
        <ele>164.89</ele>
        <time>2026-01-03T14:10:46.000Z</time>
      </trkpt>
      <trkpt lat="47.59951686" lon="1.99418096">
        <ele>166.15</ele>
        <time>2026-01-03T14:10:55.000Z</time>
      </trkpt>
      <trkpt lat="47.59960791" lon="1.99419273">
        <ele>165.85</ele>
        <time>2026-01-03T14:11:03.000Z</time>
      </trkpt>
      <trkpt lat="47.59969622" lon="1.99423428">
        <ele>166.69</ele>
        <time>2026-01-03T14:11:11.000Z</time>
      </trkpt>
      <trkpt lat="47.59978641" lon="1.99430005">
        <ele>165.98</ele>
        <time>2026-01-03T14:11:20.000Z</time>
      </trkpt>
      <trkpt lat="47.59983514" lon="1.99441773">
        <ele>163.64</ele>
        <time>2026-01-03T14:11:26.000Z</time>
      </trkpt>
      <trkpt lat="47.59981342" lon="1.99455187">
        <ele>164.79</ele>
        <time>2026-01-03T14:11:34.000Z</time>
      </trkpt>
      <trkpt lat="47.59977437" lon="1.99467339">
        <ele>165.59</ele>
        <time>2026-01-03T14:11:42.000Z</time>
      </trkpt>
      <trkpt lat="47.59972069" lon="1.9947859">
        <ele>166.04</ele>
        <time>2026-01-03T14:11:50.000Z</time>
      </trkpt>
      <trkpt lat="47.59969527" lon="1.99492428">
        <ele>161.4</ele>
        <time>2026-01-03T14:11:59.000Z</time>
      </trkpt>
      <trkpt lat="47.59962371" lon="1.9950164">
        <ele>162.05</ele>
        <time>2026-01-03T14:12:08.000Z</time>
      </trkpt>
      <trkpt lat="47.59956339" lon="1.99512859">
        <ele>159.93</ele>
        <time>2026-01-03T14:12:17.000Z</time>
      </trkpt>
      <trkpt lat="47.5995221" lon="1.99526159">
        <ele>160.03</ele>
        <time>2026-01-03T14:12:26.000Z</time>
      </trkpt>
      <trkpt lat="47.59948087" lon="1.99538227">
        <ele>160.59</ele>
        <time>2026-01-03T14:12:35.000Z</time>
      </trkpt>
      <trkpt lat="47.59944698" lon="1.99551482">
        <ele>160</ele>
        <time>2026-01-03T14:12:45.000Z</time>
      </trkpt>
      <trkpt lat="47.59939802" lon="1.99563659">
        <ele>159.26</ele>
        <time>2026-01-03T14:12:55.000Z</time>
      </trkpt>
      <trkpt lat="47.59933049" lon="1.99573507">
        <ele>157.76</ele>
        <time>2026-01-03T14:13:03.000Z</time>
      </trkpt>
      <trkpt lat="47.59928119" lon="1.99585579">
        <ele>160.42</ele>
        <time>2026-01-03T14:13:11.000Z</time>
      </trkpt>
      <trkpt lat="47.59923889" lon="1.99597781">
        <ele>158.5</ele>
        <time>2026-01-03T14:13:19.000Z</time>
      </trkpt>
      <trkpt lat="47.59917847" lon="1.99607755">
        <ele>158.8</ele>
        <time>2026-01-03T14:13:26.000Z</time>
      </trkpt>
      <trkpt lat="47.59911699" lon="1.99619291">
        <ele>158.79</ele>
        <time>2026-01-03T14:13:34.000Z</time>
      </trkpt>
      <trkpt lat="47.5990652" lon="1.99631104">
        <ele>158.44</ele>
        <time>2026-01-03T14:13:41.000Z</time>
      </trkpt>
      <trkpt lat="47.59903299" lon="1.99644562">
        <ele>156.4</ele>
        <time>2026-01-03T14:13:48.000Z</time>
      </trkpt>
      <trkpt lat="47.59899514" lon="1.99658362">
        <ele>160.11</ele>
        <time>2026-01-03T14:13:55.000Z</time>
      </trkpt>
      <trkpt lat="47.59900688" lon="1.99671798">
        <ele>157.88</ele>
        <time>2026-01-03T14:14:02.000Z</time>
      </trkpt>
      <trkpt lat="47.59896421" lon="1.99683783">
        <ele>159.03</ele>
        <time>2026-01-03T14:14:09.000Z</time>
      </trkpt>
      <trkpt lat="47.59892772" lon="1.99697597">
        <ele>158.89</ele>
        <time>2026-01-03T14:14:17.000Z</time>
      </trkpt>
      <trkpt lat="47.59888933" lon="1.99709821">
        <ele>159.36</ele>
        <time>2026-01-03T14:14:25.000Z</time>
      </trkpt>
      <trkpt lat="47.5988406" lon="1.99722337">
        <ele>159.12</ele>
        <time>2026-01-03T14:14:34.000Z</time>
      </trkpt>
      <trkpt lat="47.5988056" lon="1.99734779">
        <ele>159.85</ele>
        <time>2026-01-03T14:14:41.000Z</time>
      </trkpt>
      <trkpt lat="47.59876583" lon="1.99748687">
        <ele>160.38</ele>
        <time>2026-01-03T14:14:49.000Z</time>
      </trkpt>
      <trkpt lat="47.59871275" lon="1.99760338">
        <ele>158.93</ele>
        <time>2026-01-03T14:14:56.000Z</time>
      </trkpt>
      <trkpt lat="47.59868387" lon="1.99773386">
        <ele>158.45</ele>
        <time>2026-01-03T14:15:03.000Z</time>
      </trkpt>
      <trkpt lat="47.59864577" lon="1.99785692">
        <ele>158.33</ele>
        <time>2026-01-03T14:15:10.000Z</time>
      </trkpt>
      <trkpt lat="47.59859934" lon="1.99799408">
        <ele>157.22</ele>
        <time>2026-01-03T14:15:18.000Z</time>
      </trkpt>
      <trkpt lat="47.59857576" lon="1.99812464">
        <ele>157.75</ele>
        <time>2026-01-03T14:15:25.000Z</time>
      </trkpt>
      <trkpt lat="47.59852789" lon="1.99825602">
        <ele>156.73</ele>
        <time>2026-01-03T14:15:33.000Z</time>
      </trkpt>
      <trkpt lat="47.59848265" lon="1.99838756">
        <ele>158.37</ele>
        <time>2026-01-03T14:15:41.000Z</time>
      </trkpt>
      <trkpt lat="47.59844088" lon="1.99850843">
        <ele>158.58</ele>
        <time>2026-01-03T14:15:49.000Z</time>
      </trkpt>
      <trkpt lat="47.59840618" lon="1.99865104">
        <ele>158.92</ele>
        <time>2026-01-03T14:15:57.000Z</time>
      </trkpt>
      <trkpt lat="47.59837915" lon="1.99878968">
        <ele>158.11</ele>
        <time>2026-01-03T14:16:04.000Z</time>
      </trkpt>
      <trkpt lat="47.59836352" lon="1.99892601">
        <ele>156.89</ele>
        <time>2026-01-03T14:16:11.000Z</time>
      </trkpt>
      <trkpt lat="47.59834578" lon="1.99906733">
        <ele>156.5</ele>
        <time>2026-01-03T14:16:18.000Z</time>
      </trkpt>
      <trkpt lat="47.59831077" lon="1.99919665">
        <ele>154.76</ele>
        <time>2026-01-03T14:16:25.000Z</time>
      </trkpt>
      <trkpt lat="47.59827881" lon="1.99934111">
        <ele>155.59</ele>
        <time>2026-01-03T14:16:33.000Z</time>
      </trkpt>
      <trkpt lat="47.59825521" lon="1.99947394">
        <ele>153.34</ele>
        <time>2026-01-03T14:16:41.000Z</time>
      </trkpt>
      <trkpt lat="47.5982316" lon="1.99960759">
        <ele>152.88</ele>
        <time>2026-01-03T14:16:50.000Z</time>
      </trkpt>
      <trkpt lat="47.59819476" lon="1.99973864">
        <ele>151.99</ele>
        <time>2026-01-03T14:16:58.000Z</time>
      </trkpt>
      <trkpt lat="47.59817896" lon="1.99988305">
        <ele>155.84</ele>
        <time>2026-01-03T14:17:06.000Z</time>
      </trkpt>
      <trkpt lat="47.59814779" lon="2.00002108">
        <ele>155.08</ele>
        <time>2026-01-03T14:17:15.000Z</time>
      </trkpt>
      <trkpt lat="47.59811869" lon="2.00014859">
        <ele>153.87</ele>
        <time>2026-01-03T14:17:24.000Z</time>
      </trkpt>
      <trkpt lat="47.59808047" lon="2.00028045">
        <ele>153.62</ele>
        <time>2026-01-03T14:17:33.000Z</time>
      </trkpt>
      <trkpt lat="47.59804651" lon="2.00040372">
        <ele>155.54</ele>
        <time>2026-01-03T14:17:42.000Z</time>
      </trkpt>
      <trkpt lat="47.59800528" lon="2.0005352">
        <ele>154.56</ele>
        <time>2026-01-03T14:17:50.000Z</time>
      </trkpt>
      <trkpt lat="47.59796868" lon="2.00065795">
        <ele>156.09</ele>
        <time>2026-01-03T14:18:05.000Z</time>
      </trkpt>
      <trkpt lat="47.59795739" lon="2.00079852">
        <ele>153.09</ele>
        <time>2026-01-03T14:18:17.000Z</time>
      </trkpt>
      <trkpt lat="47.59793957" lon="2.00093888">
        <ele>152.29</ele>
        <time>2026-01-03T14:18:28.000Z</time>
      </trkpt>
      <trkpt lat="47.59793033" lon="2.0010761">
        <ele>153.21</ele>
        <time>2026-01-03T14:18:38.000Z</time>
      </trkpt>
      <trkpt lat="47.59792334" lon="2.00121161">
        <ele>152.77</ele>
        <time>2026-01-03T14:18:48.000Z</time>
      </trkpt>
      <trkpt lat="47.59789767" lon="2.00134539">
        <ele>150.75</ele>
        <time>2026-01-03T14:18:57.000Z</time>
      </trkpt>
      <trkpt lat="47.59784541" lon="2.00146475">
        <ele>151.25</ele>
        <time>2026-01-03T14:19:06.000Z</time>
      </trkpt>
      <trkpt lat="47.59781099" lon="2.00159069">
        <ele>151.51</ele>
        <time>2026-01-03T14:19:18.000Z</time>
      </trkpt>
      <trkpt lat="47.59778538" lon="2.00172477">
        <ele>153.66</ele>
        <time>2026-01-03T14:19:26.000Z</time>
      </trkpt>
      <trkpt lat="47.59775206" lon="2.00186453">
        <ele>154</ele>
        <time>2026-01-03T14:19:34.000Z</time>
      </trkpt>
      <trkpt lat="47.59772303" lon="2.00200634">
        <ele>155.57</ele>
        <time>2026-01-03T14:19:42.000Z</time>
      </trkpt>
      <trkpt lat="47.5976989" lon="2.00213485">
        <ele>154.87</ele>
        <time>2026-01-03T14:19:51.000Z</time>
      </trkpt>
      <trkpt lat="47.59768702" lon="2.00227069">
        <ele>156.21</ele>
        <time>2026-01-03T14:20:00.000Z</time>
      </trkpt>
      <trkpt lat="47.59766455" lon="2.00241363">
        <ele>155.22</ele>
        <time>2026-01-03T14:20:08.000Z</time>
      </trkpt>
      <trkpt lat="47.59761723" lon="2.00254322">
        <ele>155.08</ele>
        <time>2026-01-03T14:20:16.000Z</time>
      </trkpt>
      <trkpt lat="47.5975758" lon="2.00266867">
        <ele>156.64</ele>
        <time>2026-01-03T14:20:24.000Z</time>
      </trkpt>
      <trkpt lat="47.59756448" lon="2.00280808">
        <ele>155.75</ele>
        <time>2026-01-03T14:20:32.000Z</time>
      </trkpt>
      <trkpt lat="47.59755017" lon="2.00294118">
        <ele>156.16</ele>
        <time>2026-01-03T14:20:39.000Z</time>
      </trkpt>
      <trkpt lat="47.59753413" lon="2.00307644">
        <ele>158.68</ele>
        <time>2026-01-03T14:20:46.000Z</time>
      </trkpt>
      <trkpt lat="47.59751828" lon="2.00320931">
        <ele>157.37</ele>
        <time>2026-01-03T14:20:54.000Z</time>
      </trkpt>
      <trkpt lat="47.59749921" lon="2.00335059">
        <ele>157.53</ele>
        <time>2026-01-03T14:21:02.000Z</time>
      </trkpt>
      <trkpt lat="47.59748344" lon="2.00348325">
        <ele>155.95</ele>
        <time>2026-01-03T14:21:10.000Z</time>
      </trkpt>
      <trkpt lat="47.59745757" lon="2.00361877">
        <ele>156.17</ele>
        <time>2026-01-03T14:21:19.000Z</time>
      </trkpt>
      <trkpt lat="47.59743822" lon="2.00376452">
        <ele>156.3</ele>
        <time>2026-01-03T14:21:27.000Z</time>
      </trkpt>
      <trkpt lat="47.59743719" lon="2.00390395">
        <ele>155.33</ele>
        <time>2026-01-03T14:21:36.000Z</time>
      </trkpt>
      <trkpt lat="47.59742972" lon="2.00403869">
        <ele>154.67</ele>
        <time>2026-01-03T14:21:45.000Z</time>
      </trkpt>
      <trkpt lat="47.59741197" lon="2.00417622">
        <ele>154.66</ele>
        <time>2026-01-03T14:21:53.000Z</time>
      </trkpt>
      <trkpt lat="47.59739918" lon="2.00432016">
        <ele>154.89</ele>
        <time>2026-01-03T14:22:01.000Z</time>
      </trkpt>
      <trkpt lat="47.59738793" lon="2.00445244">
        <ele>154.32</ele>
        <time>2026-01-03T14:22:11.000Z</time>
      </trkpt>
      <trkpt lat="47.59737269" lon="2.00459459">
        <ele>154.53</ele>
        <time>2026-01-03T14:22:21.000Z</time>
      </trkpt>
      <trkpt lat="47.59735676" lon="2.00473426">
        <ele>154.31</ele>
        <time>2026-01-03T14:22:30.000Z</time>
      </trkpt>
      <trkpt lat="47.59734243" lon="2.00486585">
        <ele>152.52</ele>
        <time>2026-01-03T14:22:53.000Z</time>
      </trkpt>
      <trkpt lat="47.59733632" lon="2.00499923">
        <ele>152.2</ele>
        <time>2026-01-03T14:23:01.000Z</time>
      </trkpt>
      <trkpt lat="47.59733381" lon="2.00513941">
        <ele>152.22</ele>
        <time>2026-01-03T14:23:09.000Z</time>
      </trkpt>
      <trkpt lat="47.5973346" lon="2.00527769">
        <ele>152.54</ele>
        <time>2026-01-03T14:23:17.000Z</time>
      </trkpt>
      <trkpt lat="47.59734153" lon="2.00541714">
        <ele>152.8</ele>
        <time>2026-01-03T14:23:25.000Z</time>
      </trkpt>
      <trkpt lat="47.59733388" lon="2.00555082">
        <ele>153.15</ele>
        <time>2026-01-03T14:23:41.000Z</time>
      </trkpt>
      <trkpt lat="47.59731851" lon="2.00568369">
        <ele>153.13</ele>
        <time>2026-01-03T14:23:48.000Z</time>
      </trkpt>
      <trkpt lat="47.59730391" lon="2.00581893">
        <ele>153.59</ele>
        <time>2026-01-03T14:23:56.000Z</time>
      </trkpt>
      <trkpt lat="47.59729066" lon="2.00595853">
        <ele>153.22</ele>
        <time>2026-01-03T14:24:04.000Z</time>
      </trkpt>
      <trkpt lat="47.59727524" lon="2.00610446">
        <ele>152.6</ele>
        <time>2026-01-03T14:24:12.000Z</time>
      </trkpt>
      <trkpt lat="47.59727815" lon="2.00625059">
        <ele>151.29</ele>
        <time>2026-01-03T14:24:20.000Z</time>
      </trkpt>
      <trkpt lat="47.59726391" lon="2.00639572">
        <ele>152.93</ele>
        <time>2026-01-03T14:24:28.000Z</time>
      </trkpt>
      <trkpt lat="47.59726393" lon="2.00653298">
        <ele>154.46</ele>
        <time>2026-01-03T14:24:36.000Z</time>
      </trkpt>
      <trkpt lat="47.5972537" lon="2.00667596">
        <ele>156.52</ele>
        <time>2026-01-03T14:24:44.000Z</time>
      </trkpt>
      <trkpt lat="47.5972544" lon="2.00682244">
        <ele>156.15</ele>
        <time>2026-01-03T14:24:52.000Z</time>
      </trkpt>
      <trkpt lat="47.59724955" lon="2.00696557">
        <ele>154.96</ele>
        <time>2026-01-03T14:25:00.000Z</time>
      </trkpt>
      <trkpt lat="47.59724732" lon="2.00710798">
        <ele>153.96</ele>
        <time>2026-01-03T14:25:08.000Z</time>
      </trkpt>
      <trkpt lat="47.59724798" lon="2.00724296">
        <ele>155.29</ele>
        <time>2026-01-03T14:25:16.000Z</time>
      </trkpt>
      <trkpt lat="47.59725275" lon="2.00738514">
        <ele>154.22</ele>
        <time>2026-01-03T14:25:24.000Z</time>
      </trkpt>
      <trkpt lat="47.59731953" lon="2.00748038">
        <ele>153.77</ele>
        <time>2026-01-03T14:25:33.000Z</time>
      </trkpt>
      <trkpt lat="47.59739194" lon="2.00738">
        <ele>152.61</ele>
        <time>2026-01-03T14:25:47.000Z</time>
      </trkpt>
      <trkpt lat="47.59747603" lon="2.00732492">
        <ele>150.68</ele>
        <time>2026-01-03T14:25:57.000Z</time>
      </trkpt>
      <trkpt lat="47.59756716" lon="2.00726924">
        <ele>152.24</ele>
        <time>2026-01-03T14:26:05.000Z</time>
      </trkpt>
      <trkpt lat="47.59765623" lon="2.00722905">
        <ele>151.91</ele>
        <time>2026-01-03T14:26:12.000Z</time>
      </trkpt>
      <trkpt lat="47.59775408" lon="2.00718985">
        <ele>151.95</ele>
        <time>2026-01-03T14:26:20.000Z</time>
      </trkpt>
      <trkpt lat="47.59784432" lon="2.00714135">
        <ele>152.35</ele>
        <time>2026-01-03T14:26:28.000Z</time>
      </trkpt>
      <trkpt lat="47.59793557" lon="2.00709772">
        <ele>150.06</ele>
        <time>2026-01-03T14:26:36.000Z</time>
      </trkpt>
      <trkpt lat="47.59802494" lon="2.00705401">
        <ele>150.82</ele>
        <time>2026-01-03T14:26:45.000Z</time>
      </trkpt>
      <trkpt lat="47.5981137" lon="2.00702808">
        <ele>152.26</ele>
        <time>2026-01-03T14:26:53.000Z</time>
      </trkpt>
      <trkpt lat="47.59819952" lon="2.00698146">
        <ele>151.04</ele>
        <time>2026-01-03T14:27:11.000Z</time>
      </trkpt>
      <trkpt lat="47.59829961" lon="2.00697378">
        <ele>151.02</ele>
        <time>2026-01-03T14:27:19.000Z</time>
      </trkpt>
      <trkpt lat="47.59836136" lon="2.00707646">
        <ele>152.17</ele>
        <time>2026-01-03T14:27:26.000Z</time>
      </trkpt>
      <trkpt lat="47.5983862" lon="2.00720865">
        <ele>152.36</ele>
        <time>2026-01-03T14:27:33.000Z</time>
      </trkpt>
      <trkpt lat="47.59843047" lon="2.00733677">
        <ele>152.66</ele>
        <time>2026-01-03T14:27:41.000Z</time>
      </trkpt>
      <trkpt lat="47.5984859" lon="2.00746091">
        <ele>153.06</ele>
        <time>2026-01-03T14:27:49.000Z</time>
      </trkpt>
      <trkpt lat="47.59853668" lon="2.00758328">
        <ele>153.29</ele>
        <time>2026-01-03T14:27:56.000Z</time>
      </trkpt>
      <trkpt lat="47.59858875" lon="2.00770324">
        <ele>154.09</ele>
        <time>2026-01-03T14:28:03.000Z</time>
      </trkpt>
      <trkpt lat="47.5986275" lon="2.0078234">
        <ele>153.24</ele>
        <time>2026-01-03T14:28:10.000Z</time>
      </trkpt>
      <trkpt lat="47.59867397" lon="2.00794351">
        <ele>152.4</ele>
        <time>2026-01-03T14:28:18.000Z</time>
      </trkpt>
      <trkpt lat="47.59871972" lon="2.00806383">
        <ele>151.76</ele>
        <time>2026-01-03T14:28:26.000Z</time>
      </trkpt>
      <trkpt lat="47.5987628" lon="2.00819272">
        <ele>152.9</ele>
        <time>2026-01-03T14:28:38.000Z</time>
      </trkpt>
      <trkpt lat="47.59881219" lon="2.0083178">
        <ele>154.14</ele>
        <time>2026-01-03T14:28:46.000Z</time>
      </trkpt>
      <trkpt lat="47.59886809" lon="2.00844626">
        <ele>153.78</ele>
        <time>2026-01-03T14:28:54.000Z</time>
      </trkpt>
      <trkpt lat="47.59891633" lon="2.00857703">
        <ele>153.56</ele>
        <time>2026-01-03T14:29:01.000Z</time>
      </trkpt>
      <trkpt lat="47.59895748" lon="2.00870427">
        <ele>153.8</ele>
        <time>2026-01-03T14:29:08.000Z</time>
      </trkpt>
      <trkpt lat="47.59899857" lon="2.00882933">
        <ele>154.86</ele>
        <time>2026-01-03T14:29:15.000Z</time>
      </trkpt>
      <trkpt lat="47.59905198" lon="2.00894968">
        <ele>154.66</ele>
        <time>2026-01-03T14:29:23.000Z</time>
      </trkpt>
      <trkpt lat="47.59909618" lon="2.00908684">
        <ele>153.47</ele>
        <time>2026-01-03T14:29:31.000Z</time>
      </trkpt>
      <trkpt lat="47.59914564" lon="2.00921678">
        <ele>153.77</ele>
        <time>2026-01-03T14:29:39.000Z</time>
      </trkpt>
      <trkpt lat="47.59920525" lon="2.00932784">
        <ele>152.35</ele>
        <time>2026-01-03T14:29:47.000Z</time>
      </trkpt>
      <trkpt lat="47.59925787" lon="2.00945384">
        <ele>152.97</ele>
        <time>2026-01-03T14:30:02.000Z</time>
      </trkpt>
      <trkpt lat="47.59928174" lon="2.00958727">
        <ele>151.65</ele>
        <time>2026-01-03T14:30:09.000Z</time>
      </trkpt>
      <trkpt lat="47.59931106" lon="2.00973021">
        <ele>151.6</ele>
        <time>2026-01-03T14:30:17.000Z</time>
      </trkpt>
      <trkpt lat="47.59933514" lon="2.00987066">
        <ele>152.07</ele>
        <time>2026-01-03T14:30:25.000Z</time>
      </trkpt>
      <trkpt lat="47.59938147" lon="2.0099979">
        <ele>152.21</ele>
        <time>2026-01-03T14:30:33.000Z</time>
      </trkpt>
      <trkpt lat="47.5994378" lon="2.01010719">
        <ele>152.87</ele>
        <time>2026-01-03T14:30:42.000Z</time>
      </trkpt>
      <trkpt lat="47.59948765" lon="2.01022645">
        <ele>152.66</ele>
        <time>2026-01-03T14:30:51.000Z</time>
      </trkpt>
      <trkpt lat="47.59954279" lon="2.01034986">
        <ele>152.77</ele>
        <time>2026-01-03T14:31:00.000Z</time>
      </trkpt>
      <trkpt lat="47.59959182" lon="2.01047673">
        <ele>152.93</ele>
        <time>2026-01-03T14:31:08.000Z</time>
      </trkpt>
      <trkpt lat="47.59963845" lon="2.01060129">
        <ele>152.86</ele>
        <time>2026-01-03T14:31:15.000Z</time>
      </trkpt>
      <trkpt lat="47.599689" lon="2.01072198">
        <ele>153.15</ele>
        <time>2026-01-03T14:31:22.000Z</time>
      </trkpt>
      <trkpt lat="47.59972534" lon="2.01086104">
        <ele>152.7</ele>
        <time>2026-01-03T14:31:29.000Z</time>
      </trkpt>
      <trkpt lat="47.59978941" lon="2.01097365">
        <ele>152.62</ele>
        <time>2026-01-03T14:31:37.000Z</time>
      </trkpt>
      <trkpt lat="47.59984968" lon="2.0110901">
        <ele>152.29</ele>
        <time>2026-01-03T14:31:45.000Z</time>
      </trkpt>
      <trkpt lat="47.59989675" lon="2.01120448">
        <ele>151.18</ele>
        <time>2026-01-03T14:31:52.000Z</time>
      </trkpt>
      <trkpt lat="47.5999416" lon="2.01132426">
        <ele>151.44</ele>
        <time>2026-01-03T14:31:59.000Z</time>
      </trkpt>
      <trkpt lat="47.59997832" lon="2.01144663">
        <ele>152.7</ele>
        <time>2026-01-03T14:32:06.000Z</time>
      </trkpt>
      <trkpt lat="47.60001953" lon="2.01157605">
        <ele>152.06</ele>
        <time>2026-01-03T14:32:14.000Z</time>
      </trkpt>
      <trkpt lat="47.60005396" lon="2.01170147">
        <ele>152.03</ele>
        <time>2026-01-03T14:32:22.000Z</time>
      </trkpt>
      <trkpt lat="47.6000906" lon="2.01183402">
        <ele>151.66</ele>
        <time>2026-01-03T14:32:30.000Z</time>
      </trkpt>
      <trkpt lat="47.60011775" lon="2.01197363">
        <ele>151.65</ele>
        <time>2026-01-03T14:32:38.000Z</time>
      </trkpt>
      <trkpt lat="47.60014895" lon="2.01211664">
        <ele>151.58</ele>
        <time>2026-01-03T14:32:46.000Z</time>
      </trkpt>
      <trkpt lat="47.60017711" lon="2.01225162">
        <ele>150.7</ele>
        <time>2026-01-03T14:32:53.000Z</time>
      </trkpt>
      <trkpt lat="47.60020593" lon="2.0123805">
        <ele>150.94</ele>
        <time>2026-01-03T14:33:00.000Z</time>
      </trkpt>
      <trkpt lat="47.60022967" lon="2.0125264">
        <ele>152.4</ele>
        <time>2026-01-03T14:33:08.000Z</time>
      </trkpt>
      <trkpt lat="47.60026133" lon="2.01267029">
        <ele>151.88</ele>
        <time>2026-01-03T14:33:16.000Z</time>
      </trkpt>
      <trkpt lat="47.60029003" lon="2.01281175">
        <ele>151.88</ele>
        <time>2026-01-03T14:33:24.000Z</time>
      </trkpt>
      <trkpt lat="47.60031573" lon="2.01294116">
        <ele>153.32</ele>
        <time>2026-01-03T14:33:32.000Z</time>
      </trkpt>
      <trkpt lat="47.6003559" lon="2.01306611">
        <ele>155.8</ele>
        <time>2026-01-03T14:33:40.000Z</time>
      </trkpt>
      <trkpt lat="47.60043816" lon="2.01313832">
        <ele>157.6</ele>
        <time>2026-01-03T14:33:48.000Z</time>
      </trkpt>
      <trkpt lat="47.60052914" lon="2.01318526">
        <ele>158.62</ele>
        <time>2026-01-03T14:33:56.000Z</time>
      </trkpt>
      <trkpt lat="47.60062125" lon="2.0131692">
        <ele>154.91</ele>
        <time>2026-01-03T14:34:13.000Z</time>
      </trkpt>
      <trkpt lat="47.60065597" lon="2.01303736">
        <ele>153.03</ele>
        <time>2026-01-03T14:34:21.000Z</time>
      </trkpt>
      <trkpt lat="47.60064611" lon="2.01289314">
        <ele>151.61</ele>
        <time>2026-01-03T14:34:29.000Z</time>
      </trkpt>
      <trkpt lat="47.60061185" lon="2.01275208">
        <ele>150.71</ele>
        <time>2026-01-03T14:34:37.000Z</time>
      </trkpt>
      <trkpt lat="47.60057364" lon="2.01262512">
        <ele>149.94</ele>
        <time>2026-01-03T14:34:44.000Z</time>
      </trkpt>
      <trkpt lat="47.60053952" lon="2.01248867">
        <ele>150.22</ele>
        <time>2026-01-03T14:34:52.000Z</time>
      </trkpt>
      <trkpt lat="47.60049514" lon="2.01237068">
        <ele>149.5</ele>
        <time>2026-01-03T14:34:59.000Z</time>
      </trkpt>
      <trkpt lat="47.60045694" lon="2.01224673">
        <ele>150.44</ele>
        <time>2026-01-03T14:35:06.000Z</time>
      </trkpt>
      <trkpt lat="47.6004148" lon="2.01212421">
        <ele>149.87</ele>
        <time>2026-01-03T14:35:13.000Z</time>
      </trkpt>
      <trkpt lat="47.60037806" lon="2.01200149">
        <ele>149.55</ele>
        <time>2026-01-03T14:35:20.000Z</time>
      </trkpt>
      <trkpt lat="47.60034721" lon="2.01187125">
        <ele>149.23</ele>
        <time>2026-01-03T14:35:27.000Z</time>
      </trkpt>
      <trkpt lat="47.60031461" lon="2.01174201">
        <ele>150.33</ele>
        <time>2026-01-03T14:35:34.000Z</time>
      </trkpt>
      <trkpt lat="47.60028532" lon="2.01160133">
        <ele>149.76</ele>
        <time>2026-01-03T14:35:42.000Z</time>
      </trkpt>
      <trkpt lat="47.60025585" lon="2.01146148">
        <ele>148.35</ele>
        <time>2026-01-03T14:35:50.000Z</time>
      </trkpt>
      <trkpt lat="47.60023357" lon="2.01131842">
        <ele>147.78</ele>
        <time>2026-01-03T14:35:58.000Z</time>
      </trkpt>
      <trkpt lat="47.60019184" lon="2.01118196">
        <ele>147.08</ele>
        <time>2026-01-03T14:36:06.000Z</time>
      </trkpt>
      <trkpt lat="47.60013731" lon="2.01105817">
        <ele>147.19</ele>
        <time>2026-01-03T14:36:14.000Z</time>
      </trkpt>
      <trkpt lat="47.60007397" lon="2.01093903">
        <ele>148.08</ele>
        <time>2026-01-03T14:36:22.000Z</time>
      </trkpt>
      <trkpt lat="47.60001708" lon="2.01082296">
        <ele>149.07</ele>
        <time>2026-01-03T14:36:30.000Z</time>
      </trkpt>
      <trkpt lat="47.59995161" lon="2.01072242">
        <ele>148.96</ele>
        <time>2026-01-03T14:36:38.000Z</time>
      </trkpt>
      <trkpt lat="47.59987799" lon="2.01063323">
        <ele>148.62</ele>
        <time>2026-01-03T14:36:46.000Z</time>
      </trkpt>
      <trkpt lat="47.59984119" lon="2.01050863">
        <ele>149.06</ele>
        <time>2026-01-03T14:36:57.000Z</time>
      </trkpt>
      <trkpt lat="47.59979376" lon="2.01038359">
        <ele>150.3</ele>
        <time>2026-01-03T14:37:05.000Z</time>
      </trkpt>
      <trkpt lat="47.5997548" lon="2.01025148">
        <ele>150.64</ele>
        <time>2026-01-03T14:37:14.000Z</time>
      </trkpt>
      <trkpt lat="47.59970015" lon="2.01012575">
        <ele>150.05</ele>
        <time>2026-01-03T14:37:23.000Z</time>
      </trkpt>
      <trkpt lat="47.59964895" lon="2.0100056">
        <ele>149</ele>
        <time>2026-01-03T14:37:42.000Z</time>
      </trkpt>
      <trkpt lat="47.59961135" lon="2.00987492">
        <ele>149.39</ele>
        <time>2026-01-03T14:37:50.000Z</time>
      </trkpt>
      <trkpt lat="47.59960418" lon="2.00973175">
        <ele>149.4</ele>
        <time>2026-01-03T14:37:59.000Z</time>
      </trkpt>
      <trkpt lat="47.5996025" lon="2.00958977">
        <ele>147.74</ele>
        <time>2026-01-03T14:38:08.000Z</time>
      </trkpt>
      <trkpt lat="47.59960584" lon="2.0094441">
        <ele>148.24</ele>
        <time>2026-01-03T14:38:18.000Z</time>
      </trkpt>
      <trkpt lat="47.59959997" lon="2.0093012">
        <ele>147.64</ele>
        <time>2026-01-03T14:38:26.000Z</time>
      </trkpt>
      <trkpt lat="47.59962192" lon="2.00916248">
        <ele>146.9</ele>
        <time>2026-01-03T14:38:34.000Z</time>
      </trkpt>
      <trkpt lat="47.59964228" lon="2.00902757">
        <ele>146.77</ele>
        <time>2026-01-03T14:38:41.000Z</time>
      </trkpt>
      <trkpt lat="47.59967645" lon="2.00889701">
        <ele>147.34</ele>
        <time>2026-01-03T14:38:48.000Z</time>
      </trkpt>
      <trkpt lat="47.59971492" lon="2.00875772">
        <ele>147.83</ele>
        <time>2026-01-03T14:38:56.000Z</time>
      </trkpt>
      <trkpt lat="47.59975489" lon="2.00862261">
        <ele>148.26</ele>
        <time>2026-01-03T14:39:04.000Z</time>
      </trkpt>
      <trkpt lat="47.59980087" lon="2.008494">
        <ele>148.9</ele>
        <time>2026-01-03T14:39:12.000Z</time>
      </trkpt>
      <trkpt lat="47.59984135" lon="2.00835613">
        <ele>148.56</ele>
        <time>2026-01-03T14:39:20.000Z</time>
      </trkpt>
      <trkpt lat="47.59988312" lon="2.00822676">
        <ele>148.2</ele>
        <time>2026-01-03T14:39:28.000Z</time>
      </trkpt>
      <trkpt lat="47.5999286" lon="2.00810034">
        <ele>148.65</ele>
        <time>2026-01-03T14:39:36.000Z</time>
      </trkpt>
      <trkpt lat="47.59997119" lon="2.00797945">
        <ele>149.71</ele>
        <time>2026-01-03T14:39:43.000Z</time>
      </trkpt>
      <trkpt lat="47.59999799" lon="2.00785">
        <ele>149.02</ele>
        <time>2026-01-03T14:39:50.000Z</time>
      </trkpt>
      <trkpt lat="47.60003335" lon="2.00770941">
        <ele>148.62</ele>
        <time>2026-01-03T14:39:58.000Z</time>
      </trkpt>
      <trkpt lat="47.60005568" lon="2.00757139">
        <ele>148.78</ele>
        <time>2026-01-03T14:40:06.000Z</time>
      </trkpt>
      <trkpt lat="47.60007205" lon="2.00743873">
        <ele>148.79</ele>
        <time>2026-01-03T14:40:14.000Z</time>
      </trkpt>
      <trkpt lat="47.60008673" lon="2.00730257">
        <ele>148.59</ele>
        <time>2026-01-03T14:40:22.000Z</time>
      </trkpt>
      <trkpt lat="47.60008464" lon="2.00716263">
        <ele>148.83</ele>
        <time>2026-01-03T14:40:34.000Z</time>
      </trkpt>
      <trkpt lat="47.6000872" lon="2.00702639">
        <ele>148.07</ele>
        <time>2026-01-03T14:40:41.000Z</time>
      </trkpt>
      <trkpt lat="47.60009197" lon="2.00688887">
        <ele>148.02</ele>
        <time>2026-01-03T14:40:48.000Z</time>
      </trkpt>
      <trkpt lat="47.60009054" lon="2.00675322">
        <ele>147.76</ele>
        <time>2026-01-03T14:40:55.000Z</time>
      </trkpt>
      <trkpt lat="47.60008795" lon="2.00661993">
        <ele>147.87</ele>
        <time>2026-01-03T14:41:02.000Z</time>
      </trkpt>
      <trkpt lat="47.60009326" lon="2.00648061">
        <ele>148.25</ele>
        <time>2026-01-03T14:41:10.000Z</time>
      </trkpt>
      <trkpt lat="47.60008489" lon="2.00633379">
        <ele>149</ele>
        <time>2026-01-03T14:41:19.000Z</time>
      </trkpt>
      <trkpt lat="47.60006388" lon="2.00620008">
        <ele>149.55</ele>
        <time>2026-01-03T14:41:27.000Z</time>
      </trkpt>
      <trkpt lat="47.60007027" lon="2.00606461">
        <ele>150.82</ele>
        <time>2026-01-03T14:41:49.000Z</time>
      </trkpt>
      <trkpt lat="47.60010902" lon="2.00593357">
        <ele>150.25</ele>
        <time>2026-01-03T14:42:00.000Z</time>
      </trkpt>
      <trkpt lat="47.6001249" lon="2.00578868">
        <ele>150.44</ele>
        <time>2026-01-03T14:42:08.000Z</time>
      </trkpt>
      <trkpt lat="47.60014098" lon="2.00564074">
        <ele>149.09</ele>
        <time>2026-01-03T14:42:16.000Z</time>
      </trkpt>
      <trkpt lat="47.60016834" lon="2.00549502">
        <ele>148.86</ele>
        <time>2026-01-03T14:42:24.000Z</time>
      </trkpt>
      <trkpt lat="47.60021915" lon="2.00538091">
        <ele>148.38</ele>
        <time>2026-01-03T14:42:31.000Z</time>
      </trkpt>
      <trkpt lat="47.60028428" lon="2.00526851">
        <ele>148.5</ele>
        <time>2026-01-03T14:42:39.000Z</time>
      </trkpt>
      <trkpt lat="47.60037708" lon="2.00520874">
        <ele>147.54</ele>
        <time>2026-01-03T14:42:47.000Z</time>
      </trkpt>
      <trkpt lat="47.60046476" lon="2.00516171">
        <ele>148.81</ele>
        <time>2026-01-03T14:42:54.000Z</time>
      </trkpt>
      <trkpt lat="47.60056105" lon="2.00515665">
        <ele>149.02</ele>
        <time>2026-01-03T14:43:01.000Z</time>
      </trkpt>
      <trkpt lat="47.60065952" lon="2.00518693">
        <ele>150.2</ele>
        <time>2026-01-03T14:43:09.000Z</time>
      </trkpt>
      <trkpt lat="47.60074977" lon="2.00522735">
        <ele>150.02</ele>
        <time>2026-01-03T14:43:17.000Z</time>
      </trkpt>
      <trkpt lat="47.60084446" lon="2.00527398">
        <ele>149.52</ele>
        <time>2026-01-03T14:43:25.000Z</time>
      </trkpt>
      <trkpt lat="47.60094115" lon="2.005315">
        <ele>148.98</ele>
        <time>2026-01-03T14:43:33.000Z</time>
      </trkpt>
      <trkpt lat="47.60103951" lon="2.00534536">
        <ele>149.02</ele>
        <time>2026-01-03T14:43:41.000Z</time>
      </trkpt>
      <trkpt lat="47.60113237" lon="2.00537786">
        <ele>149.01</ele>
        <time>2026-01-03T14:43:49.000Z</time>
      </trkpt>
      <trkpt lat="47.60121754" lon="2.00542259">
        <ele>149.64</ele>
        <time>2026-01-03T14:43:56.000Z</time>
      </trkpt>
      <trkpt lat="47.60130652" lon="2.00545796">
        <ele>150.65</ele>
        <time>2026-01-03T14:44:03.000Z</time>
      </trkpt>
      <trkpt lat="47.60139361" lon="2.0054969">
        <ele>150.86</ele>
        <time>2026-01-03T14:44:10.000Z</time>
      </trkpt>
      <trkpt lat="47.60149014" lon="2.00552648">
        <ele>149.74</ele>
        <time>2026-01-03T14:44:18.000Z</time>
      </trkpt>
      <trkpt lat="47.60159071" lon="2.00555985">
        <ele>149.7</ele>
        <time>2026-01-03T14:44:26.000Z</time>
      </trkpt>
      <trkpt lat="47.60168141" lon="2.00558892">
        <ele>149.82</ele>
        <time>2026-01-03T14:44:33.000Z</time>
      </trkpt>
      <trkpt lat="47.60177758" lon="2.00563946">
        <ele>150.61</ele>
        <time>2026-01-03T14:44:41.000Z</time>
      </trkpt>
      <trkpt lat="47.60186779" lon="2.0056794">
        <ele>150.8</ele>
        <time>2026-01-03T14:44:49.000Z</time>
      </trkpt>
      <trkpt lat="47.60196239" lon="2.00571671">
        <ele>151.97</ele>
        <time>2026-01-03T14:44:57.000Z</time>
      </trkpt>
      <trkpt lat="47.6020587" lon="2.00575332">
        <ele>152.05</ele>
        <time>2026-01-03T14:45:05.000Z</time>
      </trkpt>
      <trkpt lat="47.60215571" lon="2.0057893">
        <ele>151.94</ele>
        <time>2026-01-03T14:45:12.000Z</time>
      </trkpt>
      <trkpt lat="47.6022537" lon="2.0058299">
        <ele>151.67</ele>
        <time>2026-01-03T14:45:19.000Z</time>
      </trkpt>
      <trkpt lat="47.60234257" lon="2.00586663">
        <ele>151.66</ele>
        <time>2026-01-03T14:45:26.000Z</time>
      </trkpt>
      <trkpt lat="47.60243563" lon="2.00589496">
        <ele>151.2</ele>
        <time>2026-01-03T14:45:34.000Z</time>
      </trkpt>
      <trkpt lat="47.60252381" lon="2.0059281">
        <ele>150.41</ele>
        <time>2026-01-03T14:45:42.000Z</time>
      </trkpt>
      <trkpt lat="47.6026153" lon="2.00596239">
        <ele>149.11</ele>
        <time>2026-01-03T14:45:50.000Z</time>
      </trkpt>
      <trkpt lat="47.60270396" lon="2.00599289">
        <ele>149.69</ele>
        <time>2026-01-03T14:45:57.000Z</time>
      </trkpt>
      <trkpt lat="47.60278358" lon="2.00591205">
        <ele>150.2</ele>
        <time>2026-01-03T14:46:05.000Z</time>
      </trkpt>
      <trkpt lat="47.60280739" lon="2.00578168">
        <ele>149.41</ele>
        <time>2026-01-03T14:46:12.000Z</time>
      </trkpt>
      <trkpt lat="47.6028344" lon="2.0056453">
        <ele>149.04</ele>
        <time>2026-01-03T14:46:19.000Z</time>
      </trkpt>
      <trkpt lat="47.60285313" lon="2.00551058">
        <ele>149.66</ele>
        <time>2026-01-03T14:46:26.000Z</time>
      </trkpt>
      <trkpt lat="47.60287063" lon="2.00537715">
        <ele>150.03</ele>
        <time>2026-01-03T14:46:33.000Z</time>
      </trkpt>
      <trkpt lat="47.6028928" lon="2.00524526">
        <ele>150.04</ele>
        <time>2026-01-03T14:46:41.000Z</time>
      </trkpt>
      <trkpt lat="47.60291741" lon="2.00510178">
        <ele>150.2</ele>
        <time>2026-01-03T14:46:49.000Z</time>
      </trkpt>
      <trkpt lat="47.60294443" lon="2.00495879">
        <ele>149.87</ele>
        <time>2026-01-03T14:46:57.000Z</time>
      </trkpt>
      <trkpt lat="47.60296761" lon="2.00480963">
        <ele>149.49</ele>
        <time>2026-01-03T14:47:05.000Z</time>
      </trkpt>
      <trkpt lat="47.60299917" lon="2.0046812">
        <ele>150.01</ele>
        <time>2026-01-03T14:47:12.000Z</time>
      </trkpt>
      <trkpt lat="47.6030271" lon="2.00455402">
        <ele>150.82</ele>
        <time>2026-01-03T14:47:19.000Z</time>
      </trkpt>
      <trkpt lat="47.60305462" lon="2.00440988">
        <ele>151.55</ele>
        <time>2026-01-03T14:47:27.000Z</time>
      </trkpt>
      <trkpt lat="47.60307469" lon="2.00427942">
        <ele>151.81</ele>
        <time>2026-01-03T14:47:34.000Z</time>
      </trkpt>
      <trkpt lat="47.60310456" lon="2.00413251">
        <ele>152.15</ele>
        <time>2026-01-03T14:47:42.000Z</time>
      </trkpt>
      <trkpt lat="47.60313245" lon="2.00400471">
        <ele>153.55</ele>
        <time>2026-01-03T14:47:58.000Z</time>
      </trkpt>
      <trkpt lat="47.60315557" lon="2.00387021">
        <ele>153.63</ele>
        <time>2026-01-03T14:48:07.000Z</time>
      </trkpt>
      <trkpt lat="47.6031761" lon="2.00373626">
        <ele>152.94</ele>
        <time>2026-01-03T14:48:15.000Z</time>
      </trkpt>
      <trkpt lat="47.60318374" lon="2.00359933">
        <ele>153.43</ele>
        <time>2026-01-03T14:48:23.000Z</time>
      </trkpt>
      <trkpt lat="47.60320162" lon="2.00345462">
        <ele>152.89</ele>
        <time>2026-01-03T14:48:37.000Z</time>
      </trkpt>
      <trkpt lat="47.60324222" lon="2.00332231">
        <ele>153.47</ele>
        <time>2026-01-03T14:48:47.000Z</time>
      </trkpt>
      <trkpt lat="47.60331685" lon="2.00324714">
        <ele>155.17</ele>
        <time>2026-01-03T14:48:54.000Z</time>
      </trkpt>
      <trkpt lat="47.6034004" lon="2.00317733">
        <ele>157.4</ele>
        <time>2026-01-03T14:49:02.000Z</time>
      </trkpt>
      <trkpt lat="47.60349529" lon="2.00319616">
        <ele>157.88</ele>
        <time>2026-01-03T14:49:11.000Z</time>
      </trkpt>
      <trkpt lat="47.60358287" lon="2.00325338">
        <ele>157.51</ele>
        <time>2026-01-03T14:49:18.000Z</time>
      </trkpt>
      <trkpt lat="47.6036739" lon="2.00330443">
        <ele>157.78</ele>
        <time>2026-01-03T14:49:26.000Z</time>
      </trkpt>
      <trkpt lat="47.60376693" lon="2.00336652">
        <ele>157.9</ele>
        <time>2026-01-03T14:49:34.000Z</time>
      </trkpt>
      <trkpt lat="47.6038625" lon="2.00340393">
        <ele>157.51</ele>
        <time>2026-01-03T14:49:42.000Z</time>
      </trkpt>
      <trkpt lat="47.60395213" lon="2.00346569">
        <ele>156.15</ele>
        <time>2026-01-03T14:49:50.000Z</time>
      </trkpt>
      <trkpt lat="47.60404514" lon="2.00349699">
        <ele>156.57</ele>
        <time>2026-01-03T14:49:58.000Z</time>
      </trkpt>
      <trkpt lat="47.604122" lon="2.00356687">
        <ele>154.43</ele>
        <time>2026-01-03T14:50:05.000Z</time>
      </trkpt>
      <trkpt lat="47.60420452" lon="2.0036258">
        <ele>153.51</ele>
        <time>2026-01-03T14:50:12.000Z</time>
      </trkpt>
      <trkpt lat="47.60428291" lon="2.00369387">
        <ele>154.83</ele>
        <time>2026-01-03T14:50:20.000Z</time>
      </trkpt>
      <trkpt lat="47.60431553" lon="2.00381896">
        <ele>154</ele>
        <time>2026-01-03T14:50:45.000Z</time>
      </trkpt>
      <trkpt lat="47.60431999" lon="2.00396477">
        <ele>152.95</ele>
        <time>2026-01-03T14:50:55.000Z</time>
      </trkpt>
      <trkpt lat="47.60428127" lon="2.0040946">
        <ele>155.69</ele>
        <time>2026-01-03T14:51:04.000Z</time>
      </trkpt>
      <trkpt lat="47.60425745" lon="2.00423718">
        <ele>153.18</ele>
        <time>2026-01-03T14:51:22.000Z</time>
      </trkpt>
      <trkpt lat="47.60422385" lon="2.00437155">
        <ele>153.26</ele>
        <time>2026-01-03T14:51:29.000Z</time>
      </trkpt>
      <trkpt lat="47.60418937" lon="2.00450209">
        <ele>153.45</ele>
        <time>2026-01-03T14:51:36.000Z</time>
      </trkpt>
      <trkpt lat="47.60414835" lon="2.00463804">
        <ele>153.42</ele>
        <time>2026-01-03T14:51:44.000Z</time>
      </trkpt>
      <trkpt lat="47.60410904" lon="2.00477769">
        <ele>153.12</ele>
        <time>2026-01-03T14:51:52.000Z</time>
      </trkpt>
      <trkpt lat="47.60407459" lon="2.00490206">
        <ele>152.76</ele>
        <time>2026-01-03T14:51:59.000Z</time>
      </trkpt>
      <trkpt lat="47.60403933" lon="2.00502603">
        <ele>151.53</ele>
        <time>2026-01-03T14:52:06.000Z</time>
      </trkpt>
      <trkpt lat="47.60400108" lon="2.00516141">
        <ele>150.99</ele>
        <time>2026-01-03T14:52:14.000Z</time>
      </trkpt>
      <trkpt lat="47.60396666" lon="2.00528691">
        <ele>150.18</ele>
        <time>2026-01-03T14:52:21.000Z</time>
      </trkpt>
      <trkpt lat="47.60391183" lon="2.00540829">
        <ele>149.26</ele>
        <time>2026-01-03T14:52:29.000Z</time>
      </trkpt>
      <trkpt lat="47.60387512" lon="2.00554464">
        <ele>150.9</ele>
        <time>2026-01-03T14:52:37.000Z</time>
      </trkpt>
      <trkpt lat="47.6038371" lon="2.00568098">
        <ele>152.82</ele>
        <time>2026-01-03T14:52:46.000Z</time>
      </trkpt>
      <trkpt lat="47.60380409" lon="2.00580734">
        <ele>152.65</ele>
        <time>2026-01-03T14:52:54.000Z</time>
      </trkpt>
      <trkpt lat="47.60376825" lon="2.00594106">
        <ele>153.05</ele>
        <time>2026-01-03T14:53:02.000Z</time>
      </trkpt>
      <trkpt lat="47.60372407" lon="2.0060605">
        <ele>153.65</ele>
        <time>2026-01-03T14:53:11.000Z</time>
      </trkpt>
      <trkpt lat="47.60366801" lon="2.00617635">
        <ele>154.02</ele>
        <time>2026-01-03T14:53:20.000Z</time>
      </trkpt>
      <trkpt lat="47.60362067" lon="2.00629488">
        <ele>154.34</ele>
        <time>2026-01-03T14:53:37.000Z</time>
      </trkpt>
      <trkpt lat="47.60361791" lon="2.00644199">
        <ele>154.81</ele>
        <time>2026-01-03T14:53:51.000Z</time>
      </trkpt>
      <trkpt lat="47.60363585" lon="2.00657849">
        <ele>155.39</ele>
        <time>2026-01-03T14:54:00.000Z</time>
      </trkpt>
      <trkpt lat="47.60367805" lon="2.00669761">
        <ele>155.26</ele>
        <time>2026-01-03T14:54:10.000Z</time>
      </trkpt>
      <trkpt lat="47.60361724" lon="2.00681675">
        <ele>154.04</ele>
        <time>2026-01-03T14:54:31.000Z</time>
      </trkpt>
      <trkpt lat="47.60356619" lon="2.00694571">
        <ele>154.24</ele>
        <time>2026-01-03T14:54:39.000Z</time>
      </trkpt>
      <trkpt lat="47.6035193" lon="2.00707923">
        <ele>152.92</ele>
        <time>2026-01-03T14:54:47.000Z</time>
      </trkpt>
      <trkpt lat="47.60347953" lon="2.00722043">
        <ele>153.33</ele>
        <time>2026-01-03T14:54:55.000Z</time>
      </trkpt>
      <trkpt lat="47.60344139" lon="2.00734885">
        <ele>151.65</ele>
        <time>2026-01-03T14:55:03.000Z</time>
      </trkpt>
      <trkpt lat="47.60340108" lon="2.00747548">
        <ele>151.34</ele>
        <time>2026-01-03T14:55:11.000Z</time>
      </trkpt>
      <trkpt lat="47.60335838" lon="2.00761034">
        <ele>149.9</ele>
        <time>2026-01-03T14:55:19.000Z</time>
      </trkpt>
      <trkpt lat="47.60331985" lon="2.00774411">
        <ele>150.99</ele>
        <time>2026-01-03T14:55:28.000Z</time>
      </trkpt>
      <trkpt lat="47.60327782" lon="2.00787748">
        <ele>150.62</ele>
        <time>2026-01-03T14:55:37.000Z</time>
      </trkpt>
      <trkpt lat="47.60323745" lon="2.00801175">
        <ele>150.26</ele>
        <time>2026-01-03T14:55:45.000Z</time>
      </trkpt>
      <trkpt lat="47.6032086" lon="2.00813862">
        <ele>151.04</ele>
        <time>2026-01-03T14:55:53.000Z</time>
      </trkpt>
      <trkpt lat="47.60316629" lon="2.00827679">
        <ele>150.96</ele>
        <time>2026-01-03T14:56:01.000Z</time>
      </trkpt>
      <trkpt lat="47.60313181" lon="2.00840226">
        <ele>151.61</ele>
        <time>2026-01-03T14:56:08.000Z</time>
      </trkpt>
      <trkpt lat="47.60309409" lon="2.00852989">
        <ele>150.81</ele>
        <time>2026-01-03T14:56:15.000Z</time>
      </trkpt>
      <trkpt lat="47.60306062" lon="2.00866758">
        <ele>151.72</ele>
        <time>2026-01-03T14:56:22.000Z</time>
      </trkpt>
      <trkpt lat="47.60302846" lon="2.0087961">
        <ele>152.01</ele>
        <time>2026-01-03T14:56:29.000Z</time>
      </trkpt>
      <trkpt lat="47.60299447" lon="2.00893583">
        <ele>150.97</ele>
        <time>2026-01-03T14:56:37.000Z</time>
      </trkpt>
      <trkpt lat="47.60295904" lon="2.00907072">
        <ele>151.32</ele>
        <time>2026-01-03T14:56:45.000Z</time>
      </trkpt>
      <trkpt lat="47.60292008" lon="2.00920642">
        <ele>151.13</ele>
        <time>2026-01-03T14:56:53.000Z</time>
      </trkpt>
      <trkpt lat="47.60287595" lon="2.00932486">
        <ele>150.52</ele>
        <time>2026-01-03T14:57:00.000Z</time>
      </trkpt>
      <trkpt lat="47.60283732" lon="2.00945137">
        <ele>151.33</ele>
        <time>2026-01-03T14:57:07.000Z</time>
      </trkpt>
      <trkpt lat="47.60279207" lon="2.0095815">
        <ele>149.94</ele>
        <time>2026-01-03T14:57:15.000Z</time>
      </trkpt>
      <trkpt lat="47.60273245" lon="2.00969824">
        <ele>148.4</ele>
        <time>2026-01-03T14:57:23.000Z</time>
      </trkpt>
      <trkpt lat="47.60265892" lon="2.00978985">
        <ele>147.78</ele>
        <time>2026-01-03T14:57:31.000Z</time>
      </trkpt>
      <trkpt lat="47.60256721" lon="2.00984566">
        <ele>146.34</ele>
        <time>2026-01-03T14:57:39.000Z</time>
      </trkpt>
      <trkpt lat="47.60249733" lon="2.00993902">
        <ele>146.32</ele>
        <time>2026-01-03T14:57:47.000Z</time>
      </trkpt>
      <trkpt lat="47.60245375" lon="2.01006491">
        <ele>147.37</ele>
        <time>2026-01-03T14:57:55.000Z</time>
      </trkpt>
      <trkpt lat="47.6024423" lon="2.01020021">
        <ele>150.06</ele>
        <time>2026-01-03T14:58:08.000Z</time>
      </trkpt>
      <trkpt lat="47.60251674" lon="2.01029111">
        <ele>151</ele>
        <time>2026-01-03T14:58:18.000Z</time>
      </trkpt>
      <trkpt lat="47.60259832" lon="2.01036091">
        <ele>152.11</ele>
        <time>2026-01-03T14:58:27.000Z</time>
      </trkpt>
      <trkpt lat="47.60257504" lon="2.01049512">
        <ele>152.61</ele>
        <time>2026-01-03T14:58:36.000Z</time>
      </trkpt>
      <trkpt lat="47.60254053" lon="2.01062175">
        <ele>152.27</ele>
        <time>2026-01-03T14:58:43.000Z</time>
      </trkpt>
      <trkpt lat="47.60251077" lon="2.01074754">
        <ele>152.14</ele>
        <time>2026-01-03T14:58:50.000Z</time>
      </trkpt>
      <trkpt lat="47.60247143" lon="2.01087608">
        <ele>152.68</ele>
        <time>2026-01-03T14:58:58.000Z</time>
      </trkpt>
      <trkpt lat="47.60242952" lon="2.01100374">
        <ele>151.6</ele>
        <time>2026-01-03T14:59:06.000Z</time>
      </trkpt>
      <trkpt lat="47.60238954" lon="2.01113475">
        <ele>151.74</ele>
        <time>2026-01-03T14:59:14.000Z</time>
      </trkpt>
      <trkpt lat="47.60235402" lon="2.01127198">
        <ele>151.5</ele>
        <time>2026-01-03T14:59:22.000Z</time>
      </trkpt>
      <trkpt lat="47.60231512" lon="2.01139404">
        <ele>151.73</ele>
        <time>2026-01-03T14:59:29.000Z</time>
      </trkpt>
      <trkpt lat="47.6022833" lon="2.01152408">
        <ele>151.67</ele>
        <time>2026-01-03T14:59:36.000Z</time>
      </trkpt>
      <trkpt lat="47.60224481" lon="2.01165089">
        <ele>151.87</ele>
        <time>2026-01-03T14:59:43.000Z</time>
      </trkpt>
      <trkpt lat="47.60221325" lon="2.01179369">
        <ele>152.6</ele>
        <time>2026-01-03T14:59:51.000Z</time>
      </trkpt>
      <trkpt lat="47.6021727" lon="2.01191685">
        <ele>153.4</ele>
        <time>2026-01-03T14:59:59.000Z</time>
      </trkpt>
      <trkpt lat="47.60212851" lon="2.01204666">
        <ele>152.9</ele>
        <time>2026-01-03T15:00:07.000Z</time>
      </trkpt>
      <trkpt lat="47.60209059" lon="2.01217905">
        <ele>151.68</ele>
        <time>2026-01-03T15:00:15.000Z</time>
      </trkpt>
      <trkpt lat="47.60204337" lon="2.01230281">
        <ele>151.19</ele>
        <time>2026-01-03T15:00:23.000Z</time>
      </trkpt>
      <trkpt lat="47.60200969" lon="2.01243083">
        <ele>150.43</ele>
        <time>2026-01-03T15:00:30.000Z</time>
      </trkpt>
      <trkpt lat="47.60198087" lon="2.01255879">
        <ele>150.62</ele>
        <time>2026-01-03T15:00:37.000Z</time>
      </trkpt>
      <trkpt lat="47.60194575" lon="2.01268937">
        <ele>150.56</ele>
        <time>2026-01-03T15:00:45.000Z</time>
      </trkpt>
      <trkpt lat="47.60192235" lon="2.01282707">
        <ele>150.33</ele>
        <time>2026-01-03T15:00:53.000Z</time>
      </trkpt>
      <trkpt lat="47.60187553" lon="2.01294735">
        <ele>149.96</ele>
        <time>2026-01-03T15:01:01.000Z</time>
      </trkpt>
      <trkpt lat="47.60188298" lon="2.01308314">
        <ele>152.76</ele>
        <time>2026-01-03T15:01:09.000Z</time>
      </trkpt>
      <trkpt lat="47.60197766" lon="2.01313868">
        <ele>151.76</ele>
        <time>2026-01-03T15:01:24.000Z</time>
      </trkpt>
      <trkpt lat="47.60206953" lon="2.01315964">
        <ele>152.66</ele>
        <time>2026-01-03T15:01:31.000Z</time>
      </trkpt>
      <trkpt lat="47.60215854" lon="2.01318125">
        <ele>153.06</ele>
        <time>2026-01-03T15:01:39.000Z</time>
      </trkpt>
      <trkpt lat="47.60224877" lon="2.01319617">
        <ele>153.24</ele>
        <time>2026-01-03T15:01:47.000Z</time>
      </trkpt>
      <trkpt lat="47.60233951" lon="2.01321277">
        <ele>153.79</ele>
        <time>2026-01-03T15:01:54.000Z</time>
      </trkpt>
      <trkpt lat="47.60243832" lon="2.01323032">
        <ele>154.51</ele>
        <time>2026-01-03T15:02:02.000Z</time>
      </trkpt>
      <trkpt lat="47.60254004" lon="2.01323111">
        <ele>154.69</ele>
        <time>2026-01-03T15:02:10.000Z</time>
      </trkpt>
      <trkpt lat="47.60264094" lon="2.01324652">
        <ele>154.97</ele>
        <time>2026-01-03T15:02:18.000Z</time>
      </trkpt>
      <trkpt lat="47.60273241" lon="2.01325546">
        <ele>156.31</ele>
        <time>2026-01-03T15:02:25.000Z</time>
      </trkpt>
      <trkpt lat="47.60282861" lon="2.01326439">
        <ele>156.66</ele>
        <time>2026-01-03T15:02:32.000Z</time>
      </trkpt>
      <trkpt lat="47.60292938" lon="2.01327234">
        <ele>155.95</ele>
        <time>2026-01-03T15:02:40.000Z</time>
      </trkpt>
      <trkpt lat="47.6030192" lon="2.01326349">
        <ele>156.88</ele>
        <time>2026-01-03T15:02:48.000Z</time>
      </trkpt>
      <trkpt lat="47.60311593" lon="2.01327897">
        <ele>155.74</ele>
        <time>2026-01-03T15:02:57.000Z</time>
      </trkpt>
      <trkpt lat="47.6032158" lon="2.01329492">
        <ele>156.1</ele>
        <time>2026-01-03T15:03:05.000Z</time>
      </trkpt>
      <trkpt lat="47.60330712" lon="2.0133031">
        <ele>157.11</ele>
        <time>2026-01-03T15:03:22.000Z</time>
      </trkpt>
      <trkpt lat="47.60340615" lon="2.01330569">
        <ele>157.94</ele>
        <time>2026-01-03T15:03:30.000Z</time>
      </trkpt>
      <trkpt lat="47.60349931" lon="2.01331682">
        <ele>159.39</ele>
        <time>2026-01-03T15:03:38.000Z</time>
      </trkpt>
      <trkpt lat="47.6035985" lon="2.01332525">
        <ele>158.38</ele>
        <time>2026-01-03T15:03:48.000Z</time>
      </trkpt>
      <trkpt lat="47.60368941" lon="2.01335408">
        <ele>158.75</ele>
        <time>2026-01-03T15:03:57.000Z</time>
      </trkpt>
      <trkpt lat="47.60376446" lon="2.01343725">
        <ele>158.73</ele>
        <time>2026-01-03T15:04:05.000Z</time>
      </trkpt>
      <trkpt lat="47.60383254" lon="2.01353847">
        <ele>158.18</ele>
        <time>2026-01-03T15:04:14.000Z</time>
      </trkpt>
      <trkpt lat="47.60386126" lon="2.01367488">
        <ele>157.48</ele>
        <time>2026-01-03T15:04:22.000Z</time>
      </trkpt>
      <trkpt lat="47.60384818" lon="2.01381465">
        <ele>156.29</ele>
        <time>2026-01-03T15:04:30.000Z</time>
      </trkpt>
      <trkpt lat="47.60382952" lon="2.01395835">
        <ele>155.32</ele>
        <time>2026-01-03T15:04:39.000Z</time>
      </trkpt>
      <trkpt lat="47.60379832" lon="2.01408687">
        <ele>154.44</ele>
        <time>2026-01-03T15:04:47.000Z</time>
      </trkpt>
      <trkpt lat="47.60376756" lon="2.01421781">
        <ele>155.06</ele>
        <time>2026-01-03T15:04:55.000Z</time>
      </trkpt>
      <trkpt lat="47.60372835" lon="2.01435719">
        <ele>154.48</ele>
        <time>2026-01-03T15:05:07.000Z</time>
      </trkpt>
      <trkpt lat="47.60369605" lon="2.01449786">
        <ele>153.77</ele>
        <time>2026-01-03T15:05:15.000Z</time>
      </trkpt>
      <trkpt lat="47.60365774" lon="2.01463566">
        <ele>154.05</ele>
        <time>2026-01-03T15:05:23.000Z</time>
      </trkpt>
      <trkpt lat="47.60361909" lon="2.01477714">
        <ele>152.5</ele>
        <time>2026-01-03T15:05:31.000Z</time>
      </trkpt>
      <trkpt lat="47.60358628" lon="2.0149172">
        <ele>152.05</ele>
        <time>2026-01-03T15:05:39.000Z</time>
      </trkpt>
      <trkpt lat="47.60355015" lon="2.01505791">
        <ele>150.55</ele>
        <time>2026-01-03T15:05:47.000Z</time>
      </trkpt>
      <trkpt lat="47.60352411" lon="2.01520005">
        <ele>150.54</ele>
        <time>2026-01-03T15:05:56.000Z</time>
      </trkpt>
      <trkpt lat="47.60349169" lon="2.01532921">
        <ele>151.1</ele>
        <time>2026-01-03T15:06:04.000Z</time>
      </trkpt>
      <trkpt lat="47.60345449" lon="2.01546475">
        <ele>150.81</ele>
        <time>2026-01-03T15:06:12.000Z</time>
      </trkpt>
      <trkpt lat="47.60341605" lon="2.01558639">
        <ele>151.43</ele>
        <time>2026-01-03T15:06:24.000Z</time>
      </trkpt>
      <trkpt lat="47.60338943" lon="2.01572531">
        <ele>150.29</ele>
        <time>2026-01-03T15:06:32.000Z</time>
      </trkpt>
      <trkpt lat="47.60335318" lon="2.01585135">
        <ele>150.3</ele>
        <time>2026-01-03T15:06:40.000Z</time>
      </trkpt>
      <trkpt lat="47.60332652" lon="2.01598033">
        <ele>150.17</ele>
        <time>2026-01-03T15:06:47.000Z</time>
      </trkpt>
      <trkpt lat="47.60328904" lon="2.01610428">
        <ele>150.18</ele>
        <time>2026-01-03T15:06:54.000Z</time>
      </trkpt>
      <trkpt lat="47.60324616" lon="2.01623474">
        <ele>150.21</ele>
        <time>2026-01-03T15:07:02.000Z</time>
      </trkpt>
      <trkpt lat="47.60321534" lon="2.01636723">
        <ele>150.63</ele>
        <time>2026-01-03T15:07:10.000Z</time>
      </trkpt>
      <trkpt lat="47.60318383" lon="2.01650652">
        <ele>151.46</ele>
        <time>2026-01-03T15:07:18.000Z</time>
      </trkpt>
      <trkpt lat="47.60315821" lon="2.01664596">
        <ele>152.14</ele>
        <time>2026-01-03T15:07:26.000Z</time>
      </trkpt>
      <trkpt lat="47.6031322" lon="2.0167738">
        <ele>151.36</ele>
        <time>2026-01-03T15:07:34.000Z</time>
      </trkpt>
      <trkpt lat="47.60309084" lon="2.01690614">
        <ele>151.2</ele>
        <time>2026-01-03T15:07:43.000Z</time>
      </trkpt>
      <trkpt lat="47.60306017" lon="2.01703713">
        <ele>151.63</ele>
        <time>2026-01-03T15:07:51.000Z</time>
      </trkpt>
      <trkpt lat="47.6030257" lon="2.01717472">
        <ele>151.23</ele>
        <time>2026-01-03T15:07:59.000Z</time>
      </trkpt>
      <trkpt lat="47.60299338" lon="2.01730527">
        <ele>152.22</ele>
        <time>2026-01-03T15:08:07.000Z</time>
      </trkpt>
      <trkpt lat="47.60295587" lon="2.01742755">
        <ele>151.69</ele>
        <time>2026-01-03T15:08:19.000Z</time>
      </trkpt>
      <trkpt lat="47.60292001" lon="2.01755747">
        <ele>152.24</ele>
        <time>2026-01-03T15:08:28.000Z</time>
      </trkpt>
      <trkpt lat="47.60288482" lon="2.01768323">
        <ele>151.21</ele>
        <time>2026-01-03T15:08:36.000Z</time>
      </trkpt>
      <trkpt lat="47.60285044" lon="2.01780816">
        <ele>151.14</ele>
        <time>2026-01-03T15:08:44.000Z</time>
      </trkpt>
      <trkpt lat="47.60281396" lon="2.01794465">
        <ele>150.82</ele>
        <time>2026-01-03T15:08:52.000Z</time>
      </trkpt>
      <trkpt lat="47.60278033" lon="2.01808464">
        <ele>151.95</ele>
        <time>2026-01-03T15:09:00.000Z</time>
      </trkpt>
      <trkpt lat="47.60274859" lon="2.01821185">
        <ele>149.58</ele>
        <time>2026-01-03T15:09:07.000Z</time>
      </trkpt>
      <trkpt lat="47.60271281" lon="2.01833492">
        <ele>150.84</ele>
        <time>2026-01-03T15:09:15.000Z</time>
      </trkpt>
      <trkpt lat="47.6026764" lon="2.01846385">
        <ele>152.04</ele>
        <time>2026-01-03T15:09:23.000Z</time>
      </trkpt>
      <trkpt lat="47.60264416" lon="2.01859193">
        <ele>152.62</ele>
        <time>2026-01-03T15:09:34.000Z</time>
      </trkpt>
      <trkpt lat="47.60260204" lon="2.01871016">
        <ele>152.34</ele>
        <time>2026-01-03T15:09:45.000Z</time>
      </trkpt>
      <trkpt lat="47.60256315" lon="2.01883937">
        <ele>152.72</ele>
        <time>2026-01-03T15:09:54.000Z</time>
      </trkpt>
      <trkpt lat="47.60251983" lon="2.01896955">
        <ele>152.77</ele>
        <time>2026-01-03T15:10:02.000Z</time>
      </trkpt>
      <trkpt lat="47.60248059" lon="2.01909083">
        <ele>153.49</ele>
        <time>2026-01-03T15:10:10.000Z</time>
      </trkpt>
      <trkpt lat="47.60243484" lon="2.0192136">
        <ele>153.14</ele>
        <time>2026-01-03T15:10:19.000Z</time>
      </trkpt>
      <trkpt lat="47.60239197" lon="2.01934901">
        <ele>152.33</ele>
        <time>2026-01-03T15:10:28.000Z</time>
      </trkpt>
      <trkpt lat="47.60235664" lon="2.0194744">
        <ele>152.14</ele>
        <time>2026-01-03T15:10:36.000Z</time>
      </trkpt>
      <trkpt lat="47.60230937" lon="2.01959653">
        <ele>152.74</ele>
        <time>2026-01-03T15:10:48.000Z</time>
      </trkpt>
      <trkpt lat="47.60226502" lon="2.01971738">
        <ele>152.56</ele>
        <time>2026-01-03T15:10:57.000Z</time>
      </trkpt>
      <trkpt lat="47.60219774" lon="2.01982159">
        <ele>153.15</ele>
        <time>2026-01-03T15:11:07.000Z</time>
      </trkpt>
      <trkpt lat="47.60210892" lon="2.01978957">
        <ele>153.22</ele>
        <time>2026-01-03T15:11:16.000Z</time>
      </trkpt>
      <trkpt lat="47.60202695" lon="2.01971995">
        <ele>153.02</ele>
        <time>2026-01-03T15:11:24.000Z</time>
      </trkpt>
      <trkpt lat="47.60193338" lon="2.01965264">
        <ele>151.74</ele>
        <time>2026-01-03T15:11:32.000Z</time>
      </trkpt>
      <trkpt lat="47.60183537" lon="2.01964611">
        <ele>150.35</ele>
        <time>2026-01-03T15:11:39.000Z</time>
      </trkpt>
      <trkpt lat="47.60174627" lon="2.01960975">
        <ele>150.09</ele>
        <time>2026-01-03T15:11:46.000Z</time>
      </trkpt>
      <trkpt lat="47.6016582" lon="2.01957086">
        <ele>150.83</ele>
        <time>2026-01-03T15:11:54.000Z</time>
      </trkpt>
      <trkpt lat="47.60156556" lon="2.01951165">
        <ele>151.06</ele>
        <time>2026-01-03T15:12:03.000Z</time>
      </trkpt>
      <trkpt lat="47.6014796" lon="2.0194424">
        <ele>150.99</ele>
        <time>2026-01-03T15:12:11.000Z</time>
      </trkpt>
      <trkpt lat="47.60138498" lon="2.01939754">
        <ele>150.66</ele>
        <time>2026-01-03T15:12:19.000Z</time>
      </trkpt>
      <trkpt lat="47.60129334" lon="2.01934624">
        <ele>150.63</ele>
        <time>2026-01-03T15:12:27.000Z</time>
      </trkpt>
      <trkpt lat="47.6012028" lon="2.01929297">
        <ele>150.5</ele>
        <time>2026-01-03T15:12:35.000Z</time>
      </trkpt>
      <trkpt lat="47.60110998" lon="2.01924481">
        <ele>152.21</ele>
        <time>2026-01-03T15:12:43.000Z</time>
      </trkpt>
      <trkpt lat="47.6010208" lon="2.01920469">
        <ele>153.55</ele>
        <time>2026-01-03T15:12:51.000Z</time>
      </trkpt>
      <trkpt lat="47.60092901" lon="2.01918848">
        <ele>153.38</ele>
        <time>2026-01-03T15:12:59.000Z</time>
      </trkpt>
      <trkpt lat="47.6008329" lon="2.01914353">
        <ele>152.99</ele>
        <time>2026-01-03T15:13:08.000Z</time>
      </trkpt>
      <trkpt lat="47.60074636" lon="2.01909215">
        <ele>152.29</ele>
        <time>2026-01-03T15:13:16.000Z</time>
      </trkpt>
      <trkpt lat="47.60065722" lon="2.01903963">
        <ele>152.32</ele>
        <time>2026-01-03T15:13:24.000Z</time>
      </trkpt>
      <trkpt lat="47.60056655" lon="2.0189878">
        <ele>152.14</ele>
        <time>2026-01-03T15:13:32.000Z</time>
      </trkpt>
      <trkpt lat="47.60048193" lon="2.01893766">
        <ele>152.31</ele>
        <time>2026-01-03T15:13:39.000Z</time>
      </trkpt>
      <trkpt lat="47.60038719" lon="2.01888519">
        <ele>152.85</ele>
        <time>2026-01-03T15:13:47.000Z</time>
      </trkpt>
      <trkpt lat="47.60029805" lon="2.01883056">
        <ele>152.78</ele>
        <time>2026-01-03T15:13:55.000Z</time>
      </trkpt>
      <trkpt lat="47.6002085" lon="2.01878096">
        <ele>151.83</ele>
        <time>2026-01-03T15:14:03.000Z</time>
      </trkpt>
      <trkpt lat="47.60012146" lon="2.01873785">
        <ele>150.2</ele>
        <time>2026-01-03T15:14:11.000Z</time>
      </trkpt>
      <trkpt lat="47.60003229" lon="2.01868255">
        <ele>150.15</ele>
        <time>2026-01-03T15:14:20.000Z</time>
      </trkpt>
      <trkpt lat="47.59995187" lon="2.01861908">
        <ele>152.94</ele>
        <time>2026-01-03T15:14:29.000Z</time>
      </trkpt>
      <trkpt lat="47.59986716" lon="2.01854772">
        <ele>152.9</ele>
        <time>2026-01-03T15:14:38.000Z</time>
      </trkpt>
      <trkpt lat="47.59978301" lon="2.01849599">
        <ele>152.65</ele>
        <time>2026-01-03T15:14:45.000Z</time>
      </trkpt>
      <trkpt lat="47.5996967" lon="2.01844989">
        <ele>151.81</ele>
        <time>2026-01-03T15:14:52.000Z</time>
      </trkpt>
      <trkpt lat="47.59960962" lon="2.01840372">
        <ele>151.22</ele>
        <time>2026-01-03T15:14:59.000Z</time>
      </trkpt>
      <trkpt lat="47.59952703" lon="2.01834606">
        <ele>151.02</ele>
        <time>2026-01-03T15:15:06.000Z</time>
      </trkpt>
      <trkpt lat="47.59943919" lon="2.01829396">
        <ele>150.52</ele>
        <time>2026-01-03T15:15:13.000Z</time>
      </trkpt>
      <trkpt lat="47.59935353" lon="2.01824621">
        <ele>150.53</ele>
        <time>2026-01-03T15:15:20.000Z</time>
      </trkpt>
      <trkpt lat="47.59925753" lon="2.01820507">
        <ele>149.49</ele>
        <time>2026-01-03T15:15:28.000Z</time>
      </trkpt>
      <trkpt lat="47.59917555" lon="2.01813259">
        <ele>150.51</ele>
        <time>2026-01-03T15:16:03.000Z</time>
      </trkpt>
      <trkpt lat="47.5990887" lon="2.01809478">
        <ele>149.57</ele>
        <time>2026-01-03T15:16:16.000Z</time>
      </trkpt>
      <trkpt lat="47.59899774" lon="2.01803995">
        <ele>148.75</ele>
        <time>2026-01-03T15:16:25.000Z</time>
      </trkpt>
      <trkpt lat="47.59890414" lon="2.01803346">
        <ele>148.55</ele>
        <time>2026-01-03T15:16:38.000Z</time>
      </trkpt>
      <trkpt lat="47.59882198" lon="2.01797525">
        <ele>147.67</ele>
        <time>2026-01-03T15:16:46.000Z</time>
      </trkpt>
      <trkpt lat="47.59872896" lon="2.01791603">
        <ele>148.18</ele>
        <time>2026-01-03T15:16:56.000Z</time>
      </trkpt>
      <trkpt lat="47.59864343" lon="2.01785833">
        <ele>148.86</ele>
        <time>2026-01-03T15:17:02.000Z</time>
      </trkpt>
      <trkpt lat="47.59855971" lon="2.01779551">
        <ele>148.16</ele>
        <time>2026-01-03T15:17:09.000Z</time>
      </trkpt>
      <trkpt lat="47.59846788" lon="2.01775805">
        <ele>146.75</ele>
        <time>2026-01-03T15:17:18.000Z</time>
      </trkpt>
      <trkpt lat="47.59837973" lon="2.01773154">
        <ele>142.37</ele>
        <time>2026-01-03T15:17:26.000Z</time>
      </trkpt>
      <trkpt lat="47.59829401" lon="2.01767989">
        <ele>143.2</ele>
        <time>2026-01-03T15:17:33.000Z</time>
      </trkpt>
      <trkpt lat="47.59820173" lon="2.01761828">
        <ele>144.18</ele>
        <time>2026-01-03T15:17:41.000Z</time>
      </trkpt>
      <trkpt lat="47.59811438" lon="2.01756536">
        <ele>143.6</ele>
        <time>2026-01-03T15:17:49.000Z</time>
      </trkpt>
      <trkpt lat="47.5980281" lon="2.01750119">
        <ele>144.33</ele>
        <time>2026-01-03T15:17:58.000Z</time>
      </trkpt>
      <trkpt lat="47.59793789" lon="2.01746131">
        <ele>144.1</ele>
        <time>2026-01-03T15:18:05.000Z</time>
      </trkpt>
      <trkpt lat="47.5978494" lon="2.01742068">
        <ele>145.59</ele>
        <time>2026-01-03T15:18:12.000Z</time>
      </trkpt>
      <trkpt lat="47.59776028" lon="2.0173495">
        <ele>146.39</ele>
        <time>2026-01-03T15:18:20.000Z</time>
      </trkpt>
      <trkpt lat="47.59767361" lon="2.01729089">
        <ele>146.38</ele>
        <time>2026-01-03T15:18:27.000Z</time>
      </trkpt>
      <trkpt lat="47.59758089" lon="2.01723842">
        <ele>146.89</ele>
        <time>2026-01-03T15:18:34.000Z</time>
      </trkpt>
      <trkpt lat="47.59748807" lon="2.01722551">
        <ele>146.23</ele>
        <time>2026-01-03T15:18:43.000Z</time>
      </trkpt>
      <trkpt lat="47.5974005" lon="2.01719483">
        <ele>145.79</ele>
        <time>2026-01-03T15:18:53.000Z</time>
      </trkpt>
      <trkpt lat="47.59733968" lon="2.01731136">
        <ele>143.5</ele>
        <time>2026-01-03T15:19:02.000Z</time>
      </trkpt>
      <trkpt lat="47.59728558" lon="2.01741953">
        <ele>141.91</ele>
        <time>2026-01-03T15:19:10.000Z</time>
      </trkpt>
      <trkpt lat="47.59722525" lon="2.01753506">
        <ele>143.17</ele>
        <time>2026-01-03T15:19:17.000Z</time>
      </trkpt>
      <trkpt lat="47.59718308" lon="2.01765795">
        <ele>146.12</ele>
        <time>2026-01-03T15:19:25.000Z</time>
      </trkpt>
      <trkpt lat="47.59713914" lon="2.01777398">
        <ele>146.55</ele>
        <time>2026-01-03T15:19:31.000Z</time>
      </trkpt>
      <trkpt lat="47.59707324" lon="2.01786743">
        <ele>146.91</ele>
        <time>2026-01-03T15:19:39.000Z</time>
      </trkpt>
      <trkpt lat="47.59703316" lon="2.01799">
        <ele>147.58</ele>
        <time>2026-01-03T15:19:48.000Z</time>
      </trkpt>
      <trkpt lat="47.5969801" lon="2.01811046">
        <ele>147</ele>
        <time>2026-01-03T15:19:56.000Z</time>
      </trkpt>
      <trkpt lat="47.59692128" lon="2.01821989">
        <ele>150.44</ele>
        <time>2026-01-03T15:20:03.000Z</time>
      </trkpt>
      <trkpt lat="47.59686994" lon="2.01832926">
        <ele>145.87</ele>
        <time>2026-01-03T15:20:11.000Z</time>
      </trkpt>
      <trkpt lat="47.59682506" lon="2.01846228">
        <ele>144.51</ele>
        <time>2026-01-03T15:20:19.000Z</time>
      </trkpt>
      <trkpt lat="47.59676951" lon="2.01858797">
        <ele>144.96</ele>
        <time>2026-01-03T15:20:27.000Z</time>
      </trkpt>
      <trkpt lat="47.5967174" lon="2.01871193">
        <ele>146.91</ele>
        <time>2026-01-03T15:20:35.000Z</time>
      </trkpt>
      <trkpt lat="47.59666823" lon="2.01884303">
        <ele>146.62</ele>
        <time>2026-01-03T15:20:43.000Z</time>
      </trkpt>
      <trkpt lat="47.59661358" lon="2.01895944">
        <ele>145.66</ele>
        <time>2026-01-03T15:20:51.000Z</time>
      </trkpt>
      <trkpt lat="47.59654267" lon="2.0190599">
        <ele>146.12</ele>
        <time>2026-01-03T15:21:00.000Z</time>
      </trkpt>
      <trkpt lat="47.59651434" lon="2.01918713">
        <ele>147.06</ele>
        <time>2026-01-03T15:21:07.000Z</time>
      </trkpt>
      <trkpt lat="47.59647863" lon="2.01932132">
        <ele>149.94</ele>
        <time>2026-01-03T15:21:14.000Z</time>
      </trkpt>
      <trkpt lat="47.59650653" lon="2.0194522">
        <ele>150.41</ele>
        <time>2026-01-03T15:21:22.000Z</time>
      </trkpt>
      <trkpt lat="47.59651219" lon="2.01959191">
        <ele>149.45</ele>
        <time>2026-01-03T15:21:40.000Z</time>
      </trkpt>
      <trkpt lat="47.5964159" lon="2.01964638">
        <ele>153.31</ele>
        <time>2026-01-03T15:21:48.000Z</time>
      </trkpt>
      <trkpt lat="47.59632906" lon="2.01970079">
        <ele>154.84</ele>
        <time>2026-01-03T15:21:56.000Z</time>
      </trkpt>
      <trkpt lat="47.59624484" lon="2.01975154">
        <ele>152.58</ele>
        <time>2026-01-03T15:22:04.000Z</time>
      </trkpt>
    </trkseg>
  </trk>
</gpx>
